<?xml version="1.0" encoding="UTF-8" standalone="no" ?>
<gpx xmlns="http://www.topografix.com/GPX/1/1" xmlns:xsi="http://www.w3.org/2001/XMLSchema-instance" xsi:schemaLocation="http://www.topografix.com/GPX/1/1 http://www.topografix.com/GPX/1/1/gpx.xsd" version="1.1" creator="VisuGPX - https://www.visugpx.com">
  <metadata>
    <name>78km Tiffauges_2 édité par cth85.com</name>
    <desc><![CDATA[Ardelay  // La Cossonnière
Les Epesses // Mallièvre
St Malo  / Chambretaud
Direction Verrie  a la croix a/g
L’Armandière / Le Châtellier
St Martin des Tilleuls
A/droite La Valotière
Stop a/droite 1ère a/gauche
Tiffauges
Landes Genusson
St Symphorien
Boissière de Montaigu
Direction Landes Genusson
A/droite La Rigaudière
La Bossadière/ 
Les Rancunelières
Belon L’Angenaudière
Les Roussières
Beaurepaire cimetière a/g
1ère  a/d Les Herbiers
]]></desc>
  </metadata>
  <trk>
    <name><![CDATA[78km Tiffauges_cth85.com]]></name>
    <extensions>
      <line xmlns="http://www.topografix.com/GPX/gpx_style/0/2">
        <color>0000FF</color>
        <width>4</width>
      </line>
    </extensions>
    <trkseg>
      <trkpt lat="46.8655" lon="-1.00435">
        <ele>119</ele>
        <time>2024-08-10T12:24:06.000Z</time>
      </trkpt>
      <trkpt lat="46.86527" lon="-1.00516">
        <ele>120</ele>
        <time>2024-08-10T12:24:17.687Z</time>
      </trkpt>
      <trkpt lat="46.86456" lon="-1.00482">
        <ele>120</ele>
        <time>2024-08-10T12:24:30.004Z</time>
      </trkpt>
      <trkpt lat="46.8645" lon="-1.00551">
        <ele>122</ele>
        <time>2024-08-10T12:24:42.388Z</time>
      </trkpt>
      <trkpt lat="46.86377" lon="-1.00559">
        <ele>120</ele>
        <time>2024-08-10T12:24:51.903Z</time>
      </trkpt>
      <trkpt lat="46.86236" lon="-1.00671">
        <ele>117</ele>
        <time>2024-08-10T12:25:14.281Z</time>
      </trkpt>
      <trkpt lat="46.8609" lon="-1.00761">
        <ele>116</ele>
        <time>2024-08-10T12:25:38.910Z</time>
      </trkpt>
      <trkpt lat="46.86001" lon="-1.0089">
        <ele>113</ele>
        <time>2024-08-10T12:25:55.645Z</time>
      </trkpt>
      <trkpt lat="46.85952" lon="-1.00956">
        <ele>113</ele>
        <time>2024-08-10T12:26:06.628Z</time>
      </trkpt>
      <trkpt lat="46.85864" lon="-1.00918">
        <ele>115</ele>
        <time>2024-08-10T12:26:25.522Z</time>
      </trkpt>
      <trkpt lat="46.85856" lon="-1.00924">
        <ele>114</ele>
        <time>2024-08-10T12:26:26.411Z</time>
      </trkpt>
      <trkpt lat="46.85851" lon="-1.00919">
        <ele>114</ele>
        <time>2024-08-10T12:26:27.410Z</time>
      </trkpt>
      <trkpt lat="46.85851" lon="-1.00911">
        <ele>114</ele>
        <time>2024-08-10T12:26:28.312Z</time>
      </trkpt>
      <trkpt lat="46.85824" lon="-1.00895">
        <ele>113</ele>
        <time>2024-08-10T12:26:31.899Z</time>
      </trkpt>
      <trkpt lat="46.85735" lon="-1.00846">
        <ele>113</ele>
        <time>2024-08-10T12:26:47.577Z</time>
      </trkpt>
      <trkpt lat="46.85581" lon="-1.00714">
        <ele>110</ele>
        <time>2024-08-10T12:27:12.873Z</time>
      </trkpt>
      <trkpt lat="46.85507" lon="-1.00662">
        <ele>109</ele>
        <time>2024-08-10T12:27:24.982Z</time>
      </trkpt>
      <trkpt lat="46.85478" lon="-1.00648">
        <ele>109</ele>
        <time>2024-08-10T12:27:30.017Z</time>
      </trkpt>
      <trkpt lat="46.85346" lon="-1.00579">
        <ele>109</ele>
        <time>2024-08-10T12:27:53.127Z</time>
      </trkpt>
      <trkpt lat="46.85251" lon="-1.00547">
        <ele>111</ele>
        <time>2024-08-10T12:28:12.924Z</time>
      </trkpt>
      <trkpt lat="46.85227" lon="-1.00532">
        <ele>110</ele>
        <time>2024-08-10T12:28:16.043Z</time>
      </trkpt>
      <trkpt lat="46.85188" lon="-1.00491">
        <ele>110</ele>
        <time>2024-08-10T12:28:23.962Z</time>
      </trkpt>
      <trkpt lat="46.85111" lon="-1.00432">
        <ele>112</ele>
        <time>2024-08-10T12:28:42.102Z</time>
      </trkpt>
      <trkpt lat="46.85105" lon="-1.00442">
        <ele>112</ele>
        <time>2024-08-10T12:28:43.602Z</time>
      </trkpt>
      <trkpt lat="46.85095" lon="-1.00439">
        <ele>112</ele>
        <time>2024-08-10T12:28:45.285Z</time>
      </trkpt>
      <trkpt lat="46.85092" lon="-1.0043">
        <ele>112</ele>
        <time>2024-08-10T12:28:46.414Z</time>
      </trkpt>
      <trkpt lat="46.85094" lon="-1.00421">
        <ele>112</ele>
        <time>2024-08-10T12:28:47.481Z</time>
      </trkpt>
      <trkpt lat="46.85078" lon="-1.00407">
        <ele>112</ele>
        <time>2024-08-10T12:28:50.555Z</time>
      </trkpt>
      <trkpt lat="46.85015" lon="-1.0025">
        <ele>113</ele>
        <time>2024-08-10T12:29:12.752Z</time>
      </trkpt>
      <trkpt lat="46.8497" lon="-1.00118">
        <ele>114</ele>
        <time>2024-08-10T12:29:31.081Z</time>
      </trkpt>
      <trkpt lat="46.8496" lon="-1.00069">
        <ele>114</ele>
        <time>2024-08-10T12:29:36.847Z</time>
      </trkpt>
      <trkpt lat="46.84954" lon="-1.00006">
        <ele>115</ele>
        <time>2024-08-10T12:29:45.922Z</time>
      </trkpt>
      <trkpt lat="46.84955" lon="-0.99852">
        <ele>117</ele>
        <time>2024-08-10T12:30:06.962Z</time>
      </trkpt>
      <trkpt lat="46.84933" lon="-0.99741">
        <ele>117</ele>
        <time>2024-08-10T12:30:19.992Z</time>
      </trkpt>
      <trkpt lat="46.84904" lon="-0.99673">
        <ele>118</ele>
        <time>2024-08-10T12:30:30.854Z</time>
      </trkpt>
      <trkpt lat="46.84833" lon="-0.99543">
        <ele>117</ele>
        <time>2024-08-10T12:30:48.149Z</time>
      </trkpt>
      <trkpt lat="46.84775" lon="-0.9945">
        <ele>119</ele>
        <time>2024-08-10T12:31:06.156Z</time>
      </trkpt>
      <trkpt lat="46.84707" lon="-0.99381">
        <ele>118</ele>
        <time>2024-08-10T12:31:18.375Z</time>
      </trkpt>
      <trkpt lat="46.84688" lon="-0.99343">
        <ele>118</ele>
        <time>2024-08-10T12:31:23.682Z</time>
      </trkpt>
      <trkpt lat="46.84643" lon="-0.9915">
        <ele>119</ele>
        <time>2024-08-10T12:31:48.336Z</time>
      </trkpt>
      <trkpt lat="46.84625" lon="-0.99112">
        <ele>119</ele>
        <time>2024-08-10T12:31:53.547Z</time>
      </trkpt>
      <trkpt lat="46.84586" lon="-0.99052">
        <ele>120</ele>
        <time>2024-08-10T12:32:04.697Z</time>
      </trkpt>
      <trkpt lat="46.84616" lon="-0.9902">
        <ele>121</ele>
        <time>2024-08-10T12:32:12.792Z</time>
      </trkpt>
      <trkpt lat="46.84672" lon="-0.98982">
        <ele>122</ele>
        <time>2024-08-10T12:32:24.764Z</time>
      </trkpt>
      <trkpt lat="46.84815" lon="-0.98906">
        <ele>122</ele>
        <time>2024-08-10T12:32:49.848Z</time>
      </trkpt>
      <trkpt lat="46.84854" lon="-0.98897">
        <ele>120</ele>
        <time>2024-08-10T12:32:54.174Z</time>
      </trkpt>
      <trkpt lat="46.84856" lon="-0.9884">
        <ele>120</ele>
        <time>2024-08-10T12:33:00.609Z</time>
      </trkpt>
      <trkpt lat="46.84846" lon="-0.98753">
        <ele>122</ele>
        <time>2024-08-10T12:33:14.733Z</time>
      </trkpt>
      <trkpt lat="46.84849" lon="-0.98504">
        <ele>120</ele>
        <time>2024-08-10T12:33:39.952Z</time>
      </trkpt>
      <trkpt lat="46.8501" lon="-0.98551">
        <ele>121</ele>
        <time>2024-08-10T12:34:08.665Z</time>
      </trkpt>
      <trkpt lat="46.85097" lon="-0.98552">
        <ele>121</ele>
        <time>2024-08-10T12:34:23.008Z</time>
      </trkpt>
      <trkpt lat="46.85159" lon="-0.98536">
        <ele>120</ele>
        <time>2024-08-10T12:34:32.000Z</time>
      </trkpt>
      <trkpt lat="46.85168" lon="-0.98525">
        <ele>119</ele>
        <time>2024-08-10T12:34:33.161Z</time>
      </trkpt>
      <trkpt lat="46.85192" lon="-0.98459">
        <ele>120</ele>
        <time>2024-08-10T12:34:43.435Z</time>
      </trkpt>
      <trkpt lat="46.85221" lon="-0.98363">
        <ele>124</ele>
        <time>2024-08-10T12:35:05.660Z</time>
      </trkpt>
      <trkpt lat="46.8524" lon="-0.98324">
        <ele>124</ele>
        <time>2024-08-10T12:35:11.058Z</time>
      </trkpt>
      <trkpt lat="46.85259" lon="-0.98257">
        <ele>124</ele>
        <time>2024-08-10T12:35:19.236Z</time>
      </trkpt>
      <trkpt lat="46.85297" lon="-0.98151">
        <ele>127</ele>
        <time>2024-08-10T12:35:39.203Z</time>
      </trkpt>
      <trkpt lat="46.85307" lon="-0.98133">
        <ele>126</ele>
        <time>2024-08-10T12:35:40.807Z</time>
      </trkpt>
      <trkpt lat="46.85409" lon="-0.98078">
        <ele>128</ele>
        <time>2024-08-10T12:36:02.387Z</time>
      </trkpt>
      <trkpt lat="46.85527" lon="-0.97952">
        <ele>125</ele>
        <time>2024-08-10T12:36:22.454Z</time>
      </trkpt>
      <trkpt lat="46.85572" lon="-0.97903">
        <ele>126</ele>
        <time>2024-08-10T12:36:33.523Z</time>
      </trkpt>
      <trkpt lat="46.85607" lon="-0.97856">
        <ele>126</ele>
        <time>2024-08-10T12:36:41.357Z</time>
      </trkpt>
      <trkpt lat="46.85645" lon="-0.97793">
        <ele>128</ele>
        <time>2024-08-10T12:36:55.069Z</time>
      </trkpt>
      <trkpt lat="46.85708" lon="-0.97712">
        <ele>126</ele>
        <time>2024-08-10T12:37:06.282Z</time>
      </trkpt>
      <trkpt lat="46.85852" lon="-0.9759">
        <ele>128</ele>
        <time>2024-08-10T12:37:37.179Z</time>
      </trkpt>
      <trkpt lat="46.8598" lon="-0.97478">
        <ele>133</ele>
        <time>2024-08-10T12:38:12.248Z</time>
      </trkpt>
      <trkpt lat="46.8605" lon="-0.97394">
        <ele>133</ele>
        <time>2024-08-10T12:38:27.176Z</time>
      </trkpt>
      <trkpt lat="46.86136" lon="-0.97311">
        <ele>133</ele>
        <time>2024-08-10T12:38:44.163Z</time>
      </trkpt>
      <trkpt lat="46.8616" lon="-0.97279">
        <ele>134</ele>
        <time>2024-08-10T12:38:51.560Z</time>
      </trkpt>
      <trkpt lat="46.8624" lon="-0.97173">
        <ele>137</ele>
        <time>2024-08-10T12:39:15.321Z</time>
      </trkpt>
      <trkpt lat="46.86289" lon="-0.97133">
        <ele>140</ele>
        <time>2024-08-10T12:39:32.192Z</time>
      </trkpt>
      <trkpt lat="46.8632" lon="-0.97126">
        <ele>141</ele>
        <time>2024-08-10T12:39:39.427Z</time>
      </trkpt>
      <trkpt lat="46.86362" lon="-0.97114">
        <ele>142</ele>
        <time>2024-08-10T12:39:48.393Z</time>
      </trkpt>
      <trkpt lat="46.86434" lon="-0.97056">
        <ele>142</ele>
        <time>2024-08-10T12:40:01.944Z</time>
      </trkpt>
      <trkpt lat="46.86488" lon="-0.97005">
        <ele>146</ele>
        <time>2024-08-10T12:40:23.630Z</time>
      </trkpt>
      <trkpt lat="46.86524" lon="-0.9697">
        <ele>146</ele>
        <time>2024-08-10T12:40:30.757Z</time>
      </trkpt>
      <trkpt lat="46.86571" lon="-0.96907">
        <ele>147</ele>
        <time>2024-08-10T12:40:43.053Z</time>
      </trkpt>
      <trkpt lat="46.86647" lon="-0.96825">
        <ele>140</ele>
        <time>2024-08-10T12:40:52.394Z</time>
      </trkpt>
      <trkpt lat="46.86687" lon="-0.96792">
        <ele>138</ele>
        <time>2024-08-10T12:40:57.680Z</time>
      </trkpt>
      <trkpt lat="46.86761" lon="-0.96754">
        <ele>136</ele>
        <time>2024-08-10T12:41:08.023Z</time>
      </trkpt>
      <trkpt lat="46.86812" lon="-0.9675">
        <ele>137</ele>
        <time>2024-08-10T12:41:18.291Z</time>
      </trkpt>
      <trkpt lat="46.86833" lon="-0.96742">
        <ele>137</ele>
        <time>2024-08-10T12:41:21.868Z</time>
      </trkpt>
      <trkpt lat="46.86902" lon="-0.96685">
        <ele>141</ele>
        <time>2024-08-10T12:41:44.797Z</time>
      </trkpt>
      <trkpt lat="46.86948" lon="-0.96663">
        <ele>143</ele>
        <time>2024-08-10T12:41:57.288Z</time>
      </trkpt>
      <trkpt lat="46.86985" lon="-0.96658">
        <ele>144</ele>
        <time>2024-08-10T12:42:05.386Z</time>
      </trkpt>
      <trkpt lat="46.87017" lon="-0.96682">
        <ele>144</ele>
        <time>2024-08-10T12:42:11.314Z</time>
      </trkpt>
      <trkpt lat="46.8704" lon="-0.96615">
        <ele>143</ele>
        <time>2024-08-10T12:42:18.414Z</time>
      </trkpt>
      <trkpt lat="46.87065" lon="-0.96417">
        <ele>140</ele>
        <time>2024-08-10T12:42:37.124Z</time>
      </trkpt>
      <trkpt lat="46.87081" lon="-0.96362">
        <ele>140</ele>
        <time>2024-08-10T12:42:43.860Z</time>
      </trkpt>
      <trkpt lat="46.8711" lon="-0.96305">
        <ele>141</ele>
        <time>2024-08-10T12:42:53.732Z</time>
      </trkpt>
      <trkpt lat="46.87173" lon="-0.96213">
        <ele>141</ele>
        <time>2024-08-10T12:43:08.408Z</time>
      </trkpt>
      <trkpt lat="46.87231" lon="-0.96064">
        <ele>146</ele>
        <time>2024-08-10T12:43:39.158Z</time>
      </trkpt>
      <trkpt lat="46.87245" lon="-0.96016">
        <ele>148</ele>
        <time>2024-08-10T12:43:50.252Z</time>
      </trkpt>
      <trkpt lat="46.87273" lon="-0.95869">
        <ele>148</ele>
        <time>2024-08-10T12:44:07.450Z</time>
      </trkpt>
      <trkpt lat="46.87293" lon="-0.95721">
        <ele>149</ele>
        <time>2024-08-10T12:44:26.150Z</time>
      </trkpt>
      <trkpt lat="46.87306" lon="-0.95539">
        <ele>152</ele>
        <time>2024-08-10T12:44:52.536Z</time>
      </trkpt>
      <trkpt lat="46.87309" lon="-0.95397">
        <ele>154</ele>
        <time>2024-08-10T12:45:12.275Z</time>
      </trkpt>
      <trkpt lat="46.87299" lon="-0.95351">
        <ele>152</ele>
        <time>2024-08-10T12:45:15.664Z</time>
      </trkpt>
      <trkpt lat="46.87239" lon="-0.95214">
        <ele>147</ele>
        <time>2024-08-10T12:45:28.338Z</time>
      </trkpt>
      <trkpt lat="46.87208" lon="-0.95094">
        <ele>143</ele>
        <time>2024-08-10T12:45:38.286Z</time>
      </trkpt>
      <trkpt lat="46.87197" lon="-0.95026">
        <ele>140</ele>
        <time>2024-08-10T12:45:43.125Z</time>
      </trkpt>
      <trkpt lat="46.87193" lon="-0.94952">
        <ele>135</ele>
        <time>2024-08-10T12:45:48.145Z</time>
      </trkpt>
      <trkpt lat="46.87195" lon="-0.94906">
        <ele>133</ele>
        <time>2024-08-10T12:45:51.324Z</time>
      </trkpt>
      <trkpt lat="46.87201" lon="-0.94859">
        <ele>131</ele>
        <time>2024-08-10T12:45:54.669Z</time>
      </trkpt>
      <trkpt lat="46.87421" lon="-0.93675">
        <ele>151</ele>
        <time>2024-08-10T12:48:51.317Z</time>
      </trkpt>
      <trkpt lat="46.87429" lon="-0.93607">
        <ele>152</ele>
        <time>2024-08-10T12:49:00.967Z</time>
      </trkpt>
      <trkpt lat="46.8744" lon="-0.93384">
        <ele>157</ele>
        <time>2024-08-10T12:49:36.564Z</time>
      </trkpt>
      <trkpt lat="46.87453" lon="-0.93274">
        <ele>163</ele>
        <time>2024-08-10T12:50:08.718Z</time>
      </trkpt>
      <trkpt lat="46.87465" lon="-0.93236">
        <ele>163</ele>
        <time>2024-08-10T12:50:13.435Z</time>
      </trkpt>
      <trkpt lat="46.87526" lon="-0.93145">
        <ele>167</ele>
        <time>2024-08-10T12:50:37.232Z</time>
      </trkpt>
      <trkpt lat="46.87555" lon="-0.93081">
        <ele>172</ele>
        <time>2024-08-10T12:51:04.801Z</time>
      </trkpt>
      <trkpt lat="46.87588" lon="-0.92951">
        <ele>180</ele>
        <time>2024-08-10T12:51:47.990Z</time>
      </trkpt>
      <trkpt lat="46.87626" lon="-0.92679">
        <ele>190</ele>
        <time>2024-08-10T12:52:44.484Z</time>
      </trkpt>
      <trkpt lat="46.87638" lon="-0.92617">
        <ele>190</ele>
        <time>2024-08-10T12:52:51.745Z</time>
      </trkpt>
      <trkpt lat="46.87669" lon="-0.92535">
        <ele>190</ele>
        <time>2024-08-10T12:53:02.305Z</time>
      </trkpt>
      <trkpt lat="46.87731" lon="-0.92433">
        <ele>193</ele>
        <time>2024-08-10T12:53:23.895Z</time>
      </trkpt>
      <trkpt lat="46.87744" lon="-0.92399">
        <ele>194</ele>
        <time>2024-08-10T12:53:30.461Z</time>
      </trkpt>
      <trkpt lat="46.87768" lon="-0.92312">
        <ele>195</ele>
        <time>2024-08-10T12:53:42.818Z</time>
      </trkpt>
      <trkpt lat="46.87811" lon="-0.92111">
        <ele>195</ele>
        <time>2024-08-10T12:54:06.552Z</time>
      </trkpt>
      <trkpt lat="46.87892" lon="-0.91851">
        <ele>197</ele>
        <time>2024-08-10T12:54:42.161Z</time>
      </trkpt>
      <trkpt lat="46.87957" lon="-0.91679">
        <ele>202</ele>
        <time>2024-08-10T12:55:15.156Z</time>
      </trkpt>
      <trkpt lat="46.8804" lon="-0.91502">
        <ele>205</ele>
        <time>2024-08-10T12:55:44.929Z</time>
      </trkpt>
      <trkpt lat="46.88071" lon="-0.9145">
        <ele>209</ele>
        <time>2024-08-10T12:56:06.538Z</time>
      </trkpt>
      <trkpt lat="46.8812" lon="-0.91381">
        <ele>206</ele>
        <time>2024-08-10T12:56:14.334Z</time>
      </trkpt>
      <trkpt lat="46.88251" lon="-0.91211">
        <ele>211</ele>
        <time>2024-08-10T12:56:53.211Z</time>
      </trkpt>
      <trkpt lat="46.88283" lon="-0.91156">
        <ele>209</ele>
        <time>2024-08-10T12:56:59.018Z</time>
      </trkpt>
      <trkpt lat="46.88309" lon="-0.91079">
        <ele>206</ele>
        <time>2024-08-10T12:57:05.430Z</time>
      </trkpt>
      <trkpt lat="46.88293" lon="-0.91064">
        <ele>206</ele>
        <time>2024-08-10T12:57:08.563Z</time>
      </trkpt>
      <trkpt lat="46.8829" lon="-0.91056">
        <ele>206</ele>
        <time>2024-08-10T12:57:09.591Z</time>
      </trkpt>
      <trkpt lat="46.88291" lon="-0.91024">
        <ele>203</ele>
        <time>2024-08-10T12:57:11.757Z</time>
      </trkpt>
      <trkpt lat="46.88242" lon="-0.90991">
        <ele>202</ele>
        <time>2024-08-10T12:57:19.290Z</time>
      </trkpt>
      <trkpt lat="46.88199" lon="-0.90963">
        <ele>200</ele>
        <time>2024-08-10T12:57:24.748Z</time>
      </trkpt>
      <trkpt lat="46.882" lon="-0.90896">
        <ele>198</ele>
        <time>2024-08-10T12:57:30.015Z</time>
      </trkpt>
      <trkpt lat="46.88185" lon="-0.90649">
        <ele>197</ele>
        <time>2024-08-10T12:57:56.461Z</time>
      </trkpt>
      <trkpt lat="46.88181" lon="-0.90627">
        <ele>195</ele>
        <time>2024-08-10T12:57:58.000Z</time>
      </trkpt>
      <trkpt lat="46.88156" lon="-0.90595">
        <ele>191</ele>
        <time>2024-08-10T12:58:01.286Z</time>
      </trkpt>
      <trkpt lat="46.88151" lon="-0.90597">
        <ele>191</ele>
        <time>2024-08-10T12:58:02.141Z</time>
      </trkpt>
      <trkpt lat="46.88147" lon="-0.90589">
        <ele>190</ele>
        <time>2024-08-10T12:58:02.811Z</time>
      </trkpt>
      <trkpt lat="46.88151" lon="-0.90583">
        <ele>190</ele>
        <time>2024-08-10T12:58:03.755Z</time>
      </trkpt>
      <trkpt lat="46.88152" lon="-0.90542">
        <ele>188</ele>
        <time>2024-08-10T12:58:06.529Z</time>
      </trkpt>
      <trkpt lat="46.88165" lon="-0.90448">
        <ele>186</ele>
        <time>2024-08-10T12:58:14.839Z</time>
      </trkpt>
      <trkpt lat="46.8823" lon="-0.90013">
        <ele>182</ele>
        <time>2024-08-10T12:58:59.352Z</time>
      </trkpt>
      <trkpt lat="46.88368" lon="-0.90005">
        <ele>191</ele>
        <time>2024-08-10T12:59:47.818Z</time>
      </trkpt>
      <trkpt lat="46.88367" lon="-0.89912">
        <ele>188</ele>
        <time>2024-08-10T12:59:54.950Z</time>
      </trkpt>
      <trkpt lat="46.8837" lon="-0.89883">
        <ele>188</ele>
        <time>2024-08-10T12:59:58.255Z</time>
      </trkpt>
      <trkpt lat="46.8841" lon="-0.89746">
        <ele>183</ele>
        <time>2024-08-10T13:00:09.529Z</time>
      </trkpt>
      <trkpt lat="46.88467" lon="-0.89551">
        <ele>174</ele>
        <time>2024-08-10T13:00:24.279Z</time>
      </trkpt>
      <trkpt lat="46.88599" lon="-0.89253">
        <ele>185</ele>
        <time>2024-08-10T13:01:30.084Z</time>
      </trkpt>
      <trkpt lat="46.8861" lon="-0.89236">
        <ele>184</ele>
        <time>2024-08-10T13:01:31.708Z</time>
      </trkpt>
      <trkpt lat="46.88623" lon="-0.89226">
        <ele>185</ele>
        <time>2024-08-10T13:01:37.070Z</time>
      </trkpt>
      <trkpt lat="46.88636" lon="-0.89223">
        <ele>186</ele>
        <time>2024-08-10T13:01:42.419Z</time>
      </trkpt>
      <trkpt lat="46.88667" lon="-0.89224">
        <ele>188</ele>
        <time>2024-08-10T13:01:53.203Z</time>
      </trkpt>
      <trkpt lat="46.88781" lon="-0.89252">
        <ele>185</ele>
        <time>2024-08-10T13:02:08.394Z</time>
      </trkpt>
      <trkpt lat="46.88815" lon="-0.8925">
        <ele>185</ele>
        <time>2024-08-10T13:02:14.003Z</time>
      </trkpt>
      <trkpt lat="46.8883" lon="-0.8924">
        <ele>186</ele>
        <time>2024-08-10T13:02:19.450Z</time>
      </trkpt>
      <trkpt lat="46.88856" lon="-0.89209">
        <ele>187</ele>
        <time>2024-08-10T13:02:27.004Z</time>
      </trkpt>
      <trkpt lat="46.88891" lon="-0.89152">
        <ele>189</ele>
        <time>2024-08-10T13:02:40.017Z</time>
      </trkpt>
      <trkpt lat="46.88915" lon="-0.89097">
        <ele>189</ele>
        <time>2024-08-10T13:02:47.369Z</time>
      </trkpt>
      <trkpt lat="46.88994" lon="-0.88838">
        <ele>187</ele>
        <time>2024-08-10T13:03:16.432Z</time>
      </trkpt>
      <trkpt lat="46.89072" lon="-0.88677">
        <ele>184</ele>
        <time>2024-08-10T13:03:34.696Z</time>
      </trkpt>
      <trkpt lat="46.89171" lon="-0.88502">
        <ele>181</ele>
        <time>2024-08-10T13:03:56.235Z</time>
      </trkpt>
      <trkpt lat="46.89215" lon="-0.88392">
        <ele>183</ele>
        <time>2024-08-10T13:04:14.401Z</time>
      </trkpt>
      <trkpt lat="46.89243" lon="-0.88299">
        <ele>186</ele>
        <time>2024-08-10T13:04:32.742Z</time>
      </trkpt>
      <trkpt lat="46.89271" lon="-0.88188">
        <ele>188</ele>
        <time>2024-08-10T13:04:49.940Z</time>
      </trkpt>
      <trkpt lat="46.89294" lon="-0.88057">
        <ele>189</ele>
        <time>2024-08-10T13:05:06.890Z</time>
      </trkpt>
      <trkpt lat="46.89324" lon="-0.87932">
        <ele>188</ele>
        <time>2024-08-10T13:05:20.378Z</time>
      </trkpt>
      <trkpt lat="46.8936" lon="-0.87853">
        <ele>189</ele>
        <time>2024-08-10T13:05:32.857Z</time>
      </trkpt>
      <trkpt lat="46.89406" lon="-0.87782">
        <ele>190</ele>
        <time>2024-08-10T13:05:45.654Z</time>
      </trkpt>
      <trkpt lat="46.8946" lon="-0.87725">
        <ele>190</ele>
        <time>2024-08-10T13:05:56.630Z</time>
      </trkpt>
      <trkpt lat="46.89558" lon="-0.8766">
        <ele>191</ele>
        <time>2024-08-10T13:06:16.060Z</time>
      </trkpt>
      <trkpt lat="46.89655" lon="-0.87621">
        <ele>195</ele>
        <time>2024-08-10T13:06:41.534Z</time>
      </trkpt>
      <trkpt lat="46.89713" lon="-0.87612">
        <ele>195</ele>
        <time>2024-08-10T13:06:51.150Z</time>
      </trkpt>
      <trkpt lat="46.89833" lon="-0.8761">
        <ele>191</ele>
        <time>2024-08-10T13:07:06.038Z</time>
      </trkpt>
      <trkpt lat="46.89884" lon="-0.87595">
        <ele>188</ele>
        <time>2024-08-10T13:07:11.481Z</time>
      </trkpt>
      <trkpt lat="46.89985" lon="-0.87529">
        <ele>181</ele>
        <time>2024-08-10T13:07:22.653Z</time>
      </trkpt>
      <trkpt lat="46.90086" lon="-0.87442">
        <ele>182</ele>
        <time>2024-08-10T13:07:43.654Z</time>
      </trkpt>
      <trkpt lat="46.90147" lon="-0.87329">
        <ele>181</ele>
        <time>2024-08-10T13:07:58.428Z</time>
      </trkpt>
      <trkpt lat="46.90175" lon="-0.87297">
        <ele>180</ele>
        <time>2024-08-10T13:08:03.016Z</time>
      </trkpt>
      <trkpt lat="46.90188" lon="-0.87291">
        <ele>179</ele>
        <time>2024-08-10T13:08:04.364Z</time>
      </trkpt>
      <trkpt lat="46.9059" lon="-0.87258">
        <ele>163</ele>
        <time>2024-08-10T13:08:51.988Z</time>
      </trkpt>
      <trkpt lat="46.90924" lon="-0.87212">
        <ele>144</ele>
        <time>2024-08-10T13:09:27.324Z</time>
      </trkpt>
      <trkpt lat="46.90987" lon="-0.87198">
        <ele>136</ele>
        <time>2024-08-10T13:09:33.627Z</time>
      </trkpt>
      <trkpt lat="46.91031" lon="-0.87168">
        <ele>131</ele>
        <time>2024-08-10T13:09:38.428Z</time>
      </trkpt>
      <trkpt lat="46.91074" lon="-0.87117">
        <ele>130</ele>
        <time>2024-08-10T13:09:46.187Z</time>
      </trkpt>
      <trkpt lat="46.9109" lon="-0.8709">
        <ele>130</ele>
        <time>2024-08-10T13:09:50.213Z</time>
      </trkpt>
      <trkpt lat="46.91116" lon="-0.87021">
        <ele>129</ele>
        <time>2024-08-10T13:09:57.728Z</time>
      </trkpt>
      <trkpt lat="46.91119" lon="-0.87005">
        <ele>129</ele>
        <time>2024-08-10T13:09:59.597Z</time>
      </trkpt>
      <trkpt lat="46.91135" lon="-0.87024">
        <ele>126</ele>
        <time>2024-08-10T13:10:01.634Z</time>
      </trkpt>
      <trkpt lat="46.91143" lon="-0.87038">
        <ele>125</ele>
        <time>2024-08-10T13:10:02.868Z</time>
      </trkpt>
      <trkpt lat="46.9117" lon="-0.87122">
        <ele>125</ele>
        <time>2024-08-10T13:10:13.323Z</time>
      </trkpt>
      <trkpt lat="46.91235" lon="-0.87288">
        <ele>131</ele>
        <time>2024-08-10T13:10:49.020Z</time>
      </trkpt>
      <trkpt lat="46.91254" lon="-0.87347">
        <ele>134</ele>
        <time>2024-08-10T13:11:05.119Z</time>
      </trkpt>
      <trkpt lat="46.91261" lon="-0.87373">
        <ele>135</ele>
        <time>2024-08-10T13:11:10.779Z</time>
      </trkpt>
      <trkpt lat="46.91287" lon="-0.8757">
        <ele>142</ele>
        <time>2024-08-10T13:11:50.739Z</time>
      </trkpt>
      <trkpt lat="46.91295" lon="-0.87599">
        <ele>144</ele>
        <time>2024-08-10T13:12:01.729Z</time>
      </trkpt>
      <trkpt lat="46.91316" lon="-0.87643">
        <ele>145</ele>
        <time>2024-08-10T13:12:09.753Z</time>
      </trkpt>
      <trkpt lat="46.91368" lon="-0.87718">
        <ele>148</ele>
        <time>2024-08-10T13:12:28.541Z</time>
      </trkpt>
      <trkpt lat="46.91431" lon="-0.87783">
        <ele>149</ele>
        <time>2024-08-10T13:12:42.992Z</time>
      </trkpt>
      <trkpt lat="46.91488" lon="-0.87862">
        <ele>151</ele>
        <time>2024-08-10T13:12:59.826Z</time>
      </trkpt>
      <trkpt lat="46.91629" lon="-0.88138">
        <ele>161</ele>
        <time>2024-08-10T13:14:01.450Z</time>
      </trkpt>
      <trkpt lat="46.917" lon="-0.88257">
        <ele>159</ele>
        <time>2024-08-10T13:14:16.523Z</time>
      </trkpt>
      <trkpt lat="46.91728" lon="-0.88291">
        <ele>159</ele>
        <time>2024-08-10T13:14:22.520Z</time>
      </trkpt>
      <trkpt lat="46.91918" lon="-0.88399">
        <ele>148</ele>
        <time>2024-08-10T13:14:44.365Z</time>
      </trkpt>
      <trkpt lat="46.91951" lon="-0.88428">
        <ele>143</ele>
        <time>2024-08-10T13:14:48.172Z</time>
      </trkpt>
      <trkpt lat="46.92019" lon="-0.88509">
        <ele>144</ele>
        <time>2024-08-10T13:15:04.345Z</time>
      </trkpt>
      <trkpt lat="46.92051" lon="-0.88541">
        <ele>147</ele>
        <time>2024-08-10T13:15:20.407Z</time>
      </trkpt>
      <trkpt lat="46.92123" lon="-0.88631">
        <ele>151</ele>
        <time>2024-08-10T13:15:45.119Z</time>
      </trkpt>
      <trkpt lat="46.92137" lon="-0.88665">
        <ele>153</ele>
        <time>2024-08-10T13:15:55.811Z</time>
      </trkpt>
      <trkpt lat="46.92152" lon="-0.88748">
        <ele>159</ele>
        <time>2024-08-10T13:16:29.349Z</time>
      </trkpt>
      <trkpt lat="46.92162" lon="-0.88884">
        <ele>164</ele>
        <time>2024-08-10T13:16:57.458Z</time>
      </trkpt>
      <trkpt lat="46.92191" lon="-0.88994">
        <ele>170</ele>
        <time>2024-08-10T13:17:29.537Z</time>
      </trkpt>
      <trkpt lat="46.92207" lon="-0.89034">
        <ele>171</ele>
        <time>2024-08-10T13:17:36.814Z</time>
      </trkpt>
      <trkpt lat="46.92256" lon="-0.89111">
        <ele>174</ele>
        <time>2024-08-10T13:17:55.460Z</time>
      </trkpt>
      <trkpt lat="46.92315" lon="-0.89274">
        <ele>178</ele>
        <time>2024-08-10T13:18:24.477Z</time>
      </trkpt>
      <trkpt lat="46.92339" lon="-0.89323">
        <ele>181</ele>
        <time>2024-08-10T13:18:40.514Z</time>
      </trkpt>
      <trkpt lat="46.92481" lon="-0.89542">
        <ele>183</ele>
        <time>2024-08-10T13:19:17.909Z</time>
      </trkpt>
      <trkpt lat="46.92596" lon="-0.89656">
        <ele>184</ele>
        <time>2024-08-10T13:19:42.466Z</time>
      </trkpt>
      <trkpt lat="46.92778" lon="-0.89913">
        <ele>189</ele>
        <time>2024-08-10T13:20:33.402Z</time>
      </trkpt>
      <trkpt lat="46.92845" lon="-0.89982">
        <ele>194</ele>
        <time>2024-08-10T13:21:00.604Z</time>
      </trkpt>
      <trkpt lat="46.92847" lon="-0.89989">
        <ele>194</ele>
        <time>2024-08-10T13:21:01.458Z</time>
      </trkpt>
      <trkpt lat="46.92869" lon="-0.89996">
        <ele>194</ele>
        <time>2024-08-10T13:21:05.170Z</time>
      </trkpt>
      <trkpt lat="46.92873" lon="-0.9007">
        <ele>196</ele>
        <time>2024-08-10T13:21:17.959Z</time>
      </trkpt>
      <trkpt lat="46.9287" lon="-0.90125">
        <ele>195</ele>
        <time>2024-08-10T13:21:22.888Z</time>
      </trkpt>
      <trkpt lat="46.92843" lon="-0.9017">
        <ele>194</ele>
        <time>2024-08-10T13:21:28.329Z</time>
      </trkpt>
      <trkpt lat="46.92843" lon="-0.90215">
        <ele>193</ele>
        <time>2024-08-10T13:21:32.164Z</time>
      </trkpt>
      <trkpt lat="46.92831" lon="-0.90271">
        <ele>192</ele>
        <time>2024-08-10T13:21:37.474Z</time>
      </trkpt>
      <trkpt lat="46.92801" lon="-0.90344">
        <ele>192</ele>
        <time>2024-08-10T13:21:47.066Z</time>
      </trkpt>
      <trkpt lat="46.92819" lon="-0.90379">
        <ele>194</ele>
        <time>2024-08-10T13:21:57.806Z</time>
      </trkpt>
      <trkpt lat="46.92825" lon="-0.90404">
        <ele>195</ele>
        <time>2024-08-10T13:22:03.375Z</time>
      </trkpt>
      <trkpt lat="46.92822" lon="-0.90497">
        <ele>196</ele>
        <time>2024-08-10T13:22:15.644Z</time>
      </trkpt>
      <trkpt lat="46.92808" lon="-0.90573">
        <ele>194</ele>
        <time>2024-08-10T13:22:22.122Z</time>
      </trkpt>
      <trkpt lat="46.92782" lon="-0.9064">
        <ele>193</ele>
        <time>2024-08-10T13:22:29.443Z</time>
      </trkpt>
      <trkpt lat="46.92767" lon="-0.90681">
        <ele>192</ele>
        <time>2024-08-10T13:22:33.439Z</time>
      </trkpt>
      <trkpt lat="46.92728" lon="-0.90939">
        <ele>197</ele>
        <time>2024-08-10T13:23:13.122Z</time>
      </trkpt>
      <trkpt lat="46.92679" lon="-0.91084">
        <ele>198</ele>
        <time>2024-08-10T13:23:33.025Z</time>
      </trkpt>
      <trkpt lat="46.92671" lon="-0.9112">
        <ele>198</ele>
        <time>2024-08-10T13:23:37.287Z</time>
      </trkpt>
      <trkpt lat="46.92659" lon="-0.9118">
        <ele>198</ele>
        <time>2024-08-10T13:23:44.326Z</time>
      </trkpt>
      <trkpt lat="46.92656" lon="-0.91179">
        <ele>198</ele>
        <time>2024-08-10T13:23:44.833Z</time>
      </trkpt>
      <trkpt lat="46.92642" lon="-0.91239">
        <ele>197</ele>
        <time>2024-08-10T13:23:50.656Z</time>
      </trkpt>
      <trkpt lat="46.92629" lon="-0.91322">
        <ele>195</ele>
        <time>2024-08-10T13:23:57.813Z</time>
      </trkpt>
      <trkpt lat="46.92623" lon="-0.91394">
        <ele>192</ele>
        <time>2024-08-10T13:24:02.902Z</time>
      </trkpt>
      <trkpt lat="46.92624" lon="-0.91468">
        <ele>189</ele>
        <time>2024-08-10T13:24:08.135Z</time>
      </trkpt>
      <trkpt lat="46.92634" lon="-0.91563">
        <ele>186</ele>
        <time>2024-08-10T13:24:15.576Z</time>
      </trkpt>
      <trkpt lat="46.92645" lon="-0.91609">
        <ele>186</ele>
        <time>2024-08-10T13:24:21.064Z</time>
      </trkpt>
      <trkpt lat="46.9268" lon="-0.917">
        <ele>183</ele>
        <time>2024-08-10T13:24:29.360Z</time>
      </trkpt>
      <trkpt lat="46.92702" lon="-0.91777">
        <ele>181</ele>
        <time>2024-08-10T13:24:36.338Z</time>
      </trkpt>
      <trkpt lat="46.92736" lon="-0.91909">
        <ele>180</ele>
        <time>2024-08-10T13:24:50.776Z</time>
      </trkpt>
      <trkpt lat="46.92745" lon="-0.9196">
        <ele>180</ele>
        <time>2024-08-10T13:24:56.707Z</time>
      </trkpt>
      <trkpt lat="46.92734" lon="-0.92154">
        <ele>180</ele>
        <time>2024-08-10T13:25:18.624Z</time>
      </trkpt>
      <trkpt lat="46.92752" lon="-0.92284">
        <ele>177</ele>
        <time>2024-08-10T13:25:29.880Z</time>
      </trkpt>
      <trkpt lat="46.92763" lon="-0.92329">
        <ele>178</ele>
        <time>2024-08-10T13:25:37.302Z</time>
      </trkpt>
      <trkpt lat="46.92766" lon="-0.92366">
        <ele>179</ele>
        <time>2024-08-10T13:25:43.709Z</time>
      </trkpt>
      <trkpt lat="46.92765" lon="-0.92404">
        <ele>181</ele>
        <time>2024-08-10T13:25:54.414Z</time>
      </trkpt>
      <trkpt lat="46.92755" lon="-0.9247">
        <ele>182</ele>
        <time>2024-08-10T13:26:03.907Z</time>
      </trkpt>
      <trkpt lat="46.92761" lon="-0.92537">
        <ele>184</ele>
        <time>2024-08-10T13:26:16.115Z</time>
      </trkpt>
      <trkpt lat="46.92783" lon="-0.92677">
        <ele>191</ele>
        <time>2024-08-10T13:26:53.550Z</time>
      </trkpt>
      <trkpt lat="46.92793" lon="-0.92824">
        <ele>195</ele>
        <time>2024-08-10T13:27:19.063Z</time>
      </trkpt>
      <trkpt lat="46.92792" lon="-0.92943">
        <ele>195</ele>
        <time>2024-08-10T13:27:32.462Z</time>
      </trkpt>
      <trkpt lat="46.92795" lon="-0.92967">
        <ele>195</ele>
        <time>2024-08-10T13:27:35.209Z</time>
      </trkpt>
      <trkpt lat="46.92807" lon="-0.9301">
        <ele>193</ele>
        <time>2024-08-10T13:27:38.417Z</time>
      </trkpt>
      <trkpt lat="46.92841" lon="-0.93075">
        <ele>187</ele>
        <time>2024-08-10T13:27:43.948Z</time>
      </trkpt>
      <trkpt lat="46.92885" lon="-0.93182">
        <ele>184</ele>
        <time>2024-08-10T13:27:54.384Z</time>
      </trkpt>
      <trkpt lat="46.92909" lon="-0.93243">
        <ele>183</ele>
        <time>2024-08-10T13:28:00.972Z</time>
      </trkpt>
      <trkpt lat="46.92927" lon="-0.93308">
        <ele>182</ele>
        <time>2024-08-10T13:28:07.532Z</time>
      </trkpt>
      <trkpt lat="46.92943" lon="-0.93394">
        <ele>180</ele>
        <time>2024-08-10T13:28:15.111Z</time>
      </trkpt>
      <trkpt lat="46.92937" lon="-0.93446">
        <ele>178</ele>
        <time>2024-08-10T13:28:18.931Z</time>
      </trkpt>
      <trkpt lat="46.92918" lon="-0.93499">
        <ele>175</ele>
        <time>2024-08-10T13:28:22.975Z</time>
      </trkpt>
      <trkpt lat="46.929" lon="-0.93579">
        <ele>172</ele>
        <time>2024-08-10T13:28:29.214Z</time>
      </trkpt>
      <trkpt lat="46.92905" lon="-0.93695">
        <ele>169</ele>
        <time>2024-08-10T13:28:38.738Z</time>
      </trkpt>
      <trkpt lat="46.92894" lon="-0.93787">
        <ele>168</ele>
        <time>2024-08-10T13:28:47.864Z</time>
      </trkpt>
      <trkpt lat="46.92895" lon="-0.93814">
        <ele>169</ele>
        <time>2024-08-10T13:28:53.466Z</time>
      </trkpt>
      <trkpt lat="46.92913" lon="-0.93855">
        <ele>170</ele>
        <time>2024-08-10T13:29:00.982Z</time>
      </trkpt>
      <trkpt lat="46.92937" lon="-0.939">
        <ele>171</ele>
        <time>2024-08-10T13:29:09.360Z</time>
      </trkpt>
      <trkpt lat="46.92951" lon="-0.93914">
        <ele>170</ele>
        <time>2024-08-10T13:29:11.119Z</time>
      </trkpt>
      <trkpt lat="46.93003" lon="-0.93939">
        <ele>167</ele>
        <time>2024-08-10T13:29:16.953Z</time>
      </trkpt>
      <trkpt lat="46.93025" lon="-0.93966">
        <ele>168</ele>
        <time>2024-08-10T13:29:23.807Z</time>
      </trkpt>
      <trkpt lat="46.93058" lon="-0.94029">
        <ele>167</ele>
        <time>2024-08-10T13:29:31.385Z</time>
      </trkpt>
      <trkpt lat="46.93075" lon="-0.94079">
        <ele>167</ele>
        <time>2024-08-10T13:29:37.673Z</time>
      </trkpt>
      <trkpt lat="46.9308" lon="-0.94105">
        <ele>168</ele>
        <time>2024-08-10T13:29:43.273Z</time>
      </trkpt>
      <trkpt lat="46.9308" lon="-0.94116">
        <ele>169</ele>
        <time>2024-08-10T13:29:48.579Z</time>
      </trkpt>
      <trkpt lat="46.93057" lon="-0.94212">
        <ele>162</ele>
        <time>2024-08-10T13:29:55.451Z</time>
      </trkpt>
      <trkpt lat="46.93051" lon="-0.9433">
        <ele>161</ele>
        <time>2024-08-10T13:30:07.348Z</time>
      </trkpt>
      <trkpt lat="46.93042" lon="-0.94397">
        <ele>161</ele>
        <time>2024-08-10T13:30:15.036Z</time>
      </trkpt>
      <trkpt lat="46.93035" lon="-0.94419">
        <ele>162</ele>
        <time>2024-08-10T13:30:20.488Z</time>
      </trkpt>
      <trkpt lat="46.93008" lon="-0.94474">
        <ele>163</ele>
        <time>2024-08-10T13:30:29.995Z</time>
      </trkpt>
      <trkpt lat="46.92976" lon="-0.94472">
        <ele>164</ele>
        <time>2024-08-10T13:30:37.327Z</time>
      </trkpt>
      <trkpt lat="46.92935" lon="-0.94479">
        <ele>166</ele>
        <time>2024-08-10T13:30:48.967Z</time>
      </trkpt>
      <trkpt lat="46.92897" lon="-0.94495">
        <ele>167</ele>
        <time>2024-08-10T13:30:57.429Z</time>
      </trkpt>
      <trkpt lat="46.92877" lon="-0.94513">
        <ele>170</ele>
        <time>2024-08-10T13:31:13.843Z</time>
      </trkpt>
      <trkpt lat="46.92854" lon="-0.94549">
        <ele>175</ele>
        <time>2024-08-10T13:31:37.629Z</time>
      </trkpt>
      <trkpt lat="46.92717" lon="-0.94823">
        <ele>188</ele>
        <time>2024-08-10T13:32:49.744Z</time>
      </trkpt>
      <trkpt lat="46.92656" lon="-0.94933">
        <ele>197</ele>
        <time>2024-08-10T13:33:39.136Z</time>
      </trkpt>
      <trkpt lat="46.92626" lon="-0.94992">
        <ele>201</ele>
        <time>2024-08-10T13:34:00.593Z</time>
      </trkpt>
      <trkpt lat="46.92605" lon="-0.95044">
        <ele>202</ele>
        <time>2024-08-10T13:34:09.320Z</time>
      </trkpt>
      <trkpt lat="46.92544" lon="-0.95242">
        <ele>205</ele>
        <time>2024-08-10T13:34:39.349Z</time>
      </trkpt>
      <trkpt lat="46.92528" lon="-0.9528">
        <ele>206</ele>
        <time>2024-08-10T13:34:46.457Z</time>
      </trkpt>
      <trkpt lat="46.92474" lon="-0.95343">
        <ele>206</ele>
        <time>2024-08-10T13:34:57.840Z</time>
      </trkpt>
      <trkpt lat="46.92401" lon="-0.95405">
        <ele>206</ele>
        <time>2024-08-10T13:35:11.752Z</time>
      </trkpt>
      <trkpt lat="46.92384" lon="-0.95434">
        <ele>206</ele>
        <time>2024-08-10T13:35:16.055Z</time>
      </trkpt>
      <trkpt lat="46.9235" lon="-0.95547">
        <ele>210</ele>
        <time>2024-08-10T13:35:39.533Z</time>
      </trkpt>
      <trkpt lat="46.92338" lon="-0.95624">
        <ele>208</ele>
        <time>2024-08-10T13:35:46.039Z</time>
      </trkpt>
      <trkpt lat="46.92342" lon="-0.95692">
        <ele>204</ele>
        <time>2024-08-10T13:35:50.650Z</time>
      </trkpt>
      <trkpt lat="46.9237" lon="-0.95861">
        <ele>203</ele>
        <time>2024-08-10T13:36:08.763Z</time>
      </trkpt>
      <trkpt lat="46.9244" lon="-0.95878">
        <ele>210</ele>
        <time>2024-08-10T13:36:47.627Z</time>
      </trkpt>
      <trkpt lat="46.92466" lon="-0.95877">
        <ele>212</ele>
        <time>2024-08-10T13:36:58.330Z</time>
      </trkpt>
      <trkpt lat="46.92477" lon="-0.95871">
        <ele>212</ele>
        <time>2024-08-10T13:37:00.265Z</time>
      </trkpt>
      <trkpt lat="46.92606" lon="-0.95763">
        <ele>211</ele>
        <time>2024-08-10T13:37:23.277Z</time>
      </trkpt>
      <trkpt lat="46.92646" lon="-0.95738">
        <ele>206</ele>
        <time>2024-08-10T13:37:27.579Z</time>
      </trkpt>
      <trkpt lat="46.92689" lon="-0.95724">
        <ele>205</ele>
        <time>2024-08-10T13:37:33.521Z</time>
      </trkpt>
      <trkpt lat="46.92813" lon="-0.95726">
        <ele>203</ele>
        <time>2024-08-10T13:37:51.197Z</time>
      </trkpt>
      <trkpt lat="46.92849" lon="-0.95736">
        <ele>203</ele>
        <time>2024-08-10T13:37:57.238Z</time>
      </trkpt>
      <trkpt lat="46.92896" lon="-0.95763">
        <ele>206</ele>
        <time>2024-08-10T13:38:13.647Z</time>
      </trkpt>
      <trkpt lat="46.92919" lon="-0.9577">
        <ele>206</ele>
        <time>2024-08-10T13:38:17.520Z</time>
      </trkpt>
      <trkpt lat="46.92986" lon="-0.95769">
        <ele>208</ele>
        <time>2024-08-10T13:38:32.618Z</time>
      </trkpt>
      <trkpt lat="46.93203" lon="-0.958">
        <ele>208</ele>
        <time>2024-08-10T13:39:08.562Z</time>
      </trkpt>
      <trkpt lat="46.93229" lon="-0.95802">
        <ele>208</ele>
        <time>2024-08-10T13:39:12.854Z</time>
      </trkpt>
      <trkpt lat="46.93326" lon="-0.95782">
        <ele>202</ele>
        <time>2024-08-10T13:39:22.873Z</time>
      </trkpt>
      <trkpt lat="46.93355" lon="-0.95781">
        <ele>201</ele>
        <time>2024-08-10T13:39:26.441Z</time>
      </trkpt>
      <trkpt lat="46.93459" lon="-0.95803">
        <ele>204</ele>
        <time>2024-08-10T13:39:49.770Z</time>
      </trkpt>
      <trkpt lat="46.93485" lon="-0.95801">
        <ele>204</ele>
        <time>2024-08-10T13:39:54.062Z</time>
      </trkpt>
      <trkpt lat="46.93524" lon="-0.95789">
        <ele>200</ele>
        <time>2024-08-10T13:39:58.004Z</time>
      </trkpt>
      <trkpt lat="46.93538" lon="-0.95882">
        <ele>199</ele>
        <time>2024-08-10T13:40:07.332Z</time>
      </trkpt>
      <trkpt lat="46.93557" lon="-0.95944">
        <ele>199</ele>
        <time>2024-08-10T13:40:14.982Z</time>
      </trkpt>
      <trkpt lat="46.93645" lon="-0.96188">
        <ele>198</ele>
        <time>2024-08-10T13:40:44.542Z</time>
      </trkpt>
      <trkpt lat="46.93663" lon="-0.96315">
        <ele>200</ele>
        <time>2024-08-10T13:41:02.937Z</time>
      </trkpt>
      <trkpt lat="46.93677" lon="-0.96352">
        <ele>199</ele>
        <time>2024-08-10T13:41:06.485Z</time>
      </trkpt>
      <trkpt lat="46.93716" lon="-0.96416">
        <ele>199</ele>
        <time>2024-08-10T13:41:16.141Z</time>
      </trkpt>
      <trkpt lat="46.93735" lon="-0.96454">
        <ele>197</ele>
        <time>2024-08-10T13:41:19.411Z</time>
      </trkpt>
      <trkpt lat="46.93754" lon="-0.96592">
        <ele>195</ele>
        <time>2024-08-10T13:41:32.583Z</time>
      </trkpt>
      <trkpt lat="46.93765" lon="-0.96629">
        <ele>195</ele>
        <time>2024-08-10T13:41:37.126Z</time>
      </trkpt>
      <trkpt lat="46.93818" lon="-0.96743">
        <ele>197</ele>
        <time>2024-08-10T13:41:56.399Z</time>
      </trkpt>
      <trkpt lat="46.93847" lon="-0.96794">
        <ele>198</ele>
        <time>2024-08-10T13:42:05.759Z</time>
      </trkpt>
      <trkpt lat="46.93871" lon="-0.96848">
        <ele>198</ele>
        <time>2024-08-10T13:42:13.011Z</time>
      </trkpt>
      <trkpt lat="46.93889" lon="-0.96919">
        <ele>200</ele>
        <time>2024-08-10T13:42:25.936Z</time>
      </trkpt>
      <trkpt lat="46.93929" lon="-0.96982">
        <ele>200</ele>
        <time>2024-08-10T13:42:35.620Z</time>
      </trkpt>
      <trkpt lat="46.9397" lon="-0.97075">
        <ele>200</ele>
        <time>2024-08-10T13:42:48.080Z</time>
      </trkpt>
      <trkpt lat="46.93985" lon="-0.97123">
        <ele>199</ele>
        <time>2024-08-10T13:42:52.750Z</time>
      </trkpt>
      <trkpt lat="46.94044" lon="-0.97637">
        <ele>197</ele>
        <time>2024-08-10T13:43:48.418Z</time>
      </trkpt>
      <trkpt lat="46.9405" lon="-0.97667">
        <ele>196</ele>
        <time>2024-08-10T13:43:50.818Z</time>
      </trkpt>
      <trkpt lat="46.94121" lon="-0.97697">
        <ele>196</ele>
        <time>2024-08-10T13:44:03.000Z</time>
      </trkpt>
      <trkpt lat="46.94142" lon="-0.97711">
        <ele>195</ele>
        <time>2024-08-10T13:44:05.660Z</time>
      </trkpt>
      <trkpt lat="46.94167" lon="-0.97748">
        <ele>194</ele>
        <time>2024-08-10T13:44:10.250Z</time>
      </trkpt>
      <trkpt lat="46.94205" lon="-0.97828">
        <ele>193</ele>
        <time>2024-08-10T13:44:19.824Z</time>
      </trkpt>
      <trkpt lat="46.94246" lon="-0.97932">
        <ele>191</ele>
        <time>2024-08-10T13:44:30.734Z</time>
      </trkpt>
      <trkpt lat="46.94319" lon="-0.98088">
        <ele>192</ele>
        <time>2024-08-10T13:44:53.691Z</time>
      </trkpt>
      <trkpt lat="46.94351" lon="-0.98084">
        <ele>192</ele>
        <time>2024-08-10T13:44:58.986Z</time>
      </trkpt>
      <trkpt lat="46.94395" lon="-0.98065">
        <ele>193</ele>
        <time>2024-08-10T13:45:08.432Z</time>
      </trkpt>
      <trkpt lat="46.94496" lon="-0.9799">
        <ele>189</ele>
        <time>2024-08-10T13:45:22.270Z</time>
      </trkpt>
      <trkpt lat="46.94562" lon="-0.97934">
        <ele>188</ele>
        <time>2024-08-10T13:45:33.429Z</time>
      </trkpt>
      <trkpt lat="46.94582" lon="-0.97934">
        <ele>188</ele>
        <time>2024-08-10T13:45:36.726Z</time>
      </trkpt>
      <trkpt lat="46.94592" lon="-0.97939">
        <ele>188</ele>
        <time>2024-08-10T13:45:38.468Z</time>
      </trkpt>
      <trkpt lat="46.94642" lon="-0.97986">
        <ele>187</ele>
        <time>2024-08-10T13:45:46.885Z</time>
      </trkpt>
      <trkpt lat="46.94663" lon="-0.97972">
        <ele>186</ele>
        <time>2024-08-10T13:45:49.545Z</time>
      </trkpt>
      <trkpt lat="46.94676" lon="-0.97978">
        <ele>185</ele>
        <time>2024-08-10T13:45:50.893Z</time>
      </trkpt>
      <trkpt lat="46.94682" lon="-0.97988">
        <ele>185</ele>
        <time>2024-08-10T13:45:52.391Z</time>
      </trkpt>
      <trkpt lat="46.94683" lon="-0.98013">
        <ele>185</ele>
        <time>2024-08-10T13:45:55.210Z</time>
      </trkpt>
      <trkpt lat="46.94674" lon="-0.98033">
        <ele>185</ele>
        <time>2024-08-10T13:45:57.905Z</time>
      </trkpt>
      <trkpt lat="46.94685" lon="-0.98107">
        <ele>185</ele>
        <time>2024-08-10T13:46:06.429Z</time>
      </trkpt>
      <trkpt lat="46.94727" lon="-0.98286">
        <ele>181</ele>
        <time>2024-08-10T13:46:22.754Z</time>
      </trkpt>
      <trkpt lat="46.94732" lon="-0.98323">
        <ele>181</ele>
        <time>2024-08-10T13:46:26.999Z</time>
      </trkpt>
      <trkpt lat="46.94731" lon="-0.98389">
        <ele>184</ele>
        <time>2024-08-10T13:46:43.116Z</time>
      </trkpt>
      <trkpt lat="46.94742" lon="-0.98395">
        <ele>184</ele>
        <time>2024-08-10T13:46:45.051Z</time>
      </trkpt>
      <trkpt lat="46.94752" lon="-0.98414">
        <ele>183</ele>
        <time>2024-08-10T13:46:46.728Z</time>
      </trkpt>
      <trkpt lat="46.94747" lon="-0.98443">
        <ele>185</ele>
        <time>2024-08-10T13:46:57.816Z</time>
      </trkpt>
      <trkpt lat="46.94755" lon="-0.9846">
        <ele>184</ele>
        <time>2024-08-10T13:46:59.211Z</time>
      </trkpt>
      <trkpt lat="46.9476" lon="-0.98484">
        <ele>184</ele>
        <time>2024-08-10T13:47:02.035Z</time>
      </trkpt>
      <trkpt lat="46.9476" lon="-0.98607">
        <ele>187</ele>
        <time>2024-08-10T13:47:22.296Z</time>
      </trkpt>
      <trkpt lat="46.94765" lon="-0.98662">
        <ele>190</ele>
        <time>2024-08-10T13:47:38.381Z</time>
      </trkpt>
      <trkpt lat="46.94782" lon="-0.98755">
        <ele>190</ele>
        <time>2024-08-10T13:47:49.216Z</time>
      </trkpt>
      <trkpt lat="46.94862" lon="-0.99077">
        <ele>189</ele>
        <time>2024-08-10T13:48:26.265Z</time>
      </trkpt>
      <trkpt lat="46.94935" lon="-0.99314">
        <ele>191</ele>
        <time>2024-08-10T13:48:58.966Z</time>
      </trkpt>
      <trkpt lat="46.94949" lon="-0.99447">
        <ele>190</ele>
        <time>2024-08-10T13:49:12.671Z</time>
      </trkpt>
      <trkpt lat="46.94948" lon="-0.99676">
        <ele>195</ele>
        <time>2024-08-10T13:49:48.773Z</time>
      </trkpt>
      <trkpt lat="46.94954" lon="-0.99756">
        <ele>194</ele>
        <time>2024-08-10T13:49:56.467Z</time>
      </trkpt>
      <trkpt lat="46.94978" lon="-0.99991">
        <ele>193</ele>
        <time>2024-08-10T13:50:21.715Z</time>
      </trkpt>
      <trkpt lat="46.95008" lon="-1.00151">
        <ele>195</ele>
        <time>2024-08-10T13:50:44.022Z</time>
      </trkpt>
      <trkpt lat="46.95036" lon="-1.00244">
        <ele>195</ele>
        <time>2024-08-10T13:50:55.460Z</time>
      </trkpt>
      <trkpt lat="46.95112" lon="-1.00456">
        <ele>193</ele>
        <time>2024-08-10T13:51:19.558Z</time>
      </trkpt>
      <trkpt lat="46.95193" lon="-1.00767">
        <ele>197</ele>
        <time>2024-08-10T13:52:04.280Z</time>
      </trkpt>
      <trkpt lat="46.95209" lon="-1.0086">
        <ele>197</ele>
        <time>2024-08-10T13:52:15.073Z</time>
      </trkpt>
      <trkpt lat="46.95224" lon="-1.00879">
        <ele>197</ele>
        <time>2024-08-10T13:52:18.342Z</time>
      </trkpt>
      <trkpt lat="46.95225" lon="-1.009">
        <ele>198</ele>
        <time>2024-08-10T13:52:23.696Z</time>
      </trkpt>
      <trkpt lat="46.9522" lon="-1.00916">
        <ele>198</ele>
        <time>2024-08-10T13:52:25.676Z</time>
      </trkpt>
      <trkpt lat="46.95238" lon="-1.00947">
        <ele>198</ele>
        <time>2024-08-10T13:52:30.256Z</time>
      </trkpt>
      <trkpt lat="46.95253" lon="-1.00985">
        <ele>199</ele>
        <time>2024-08-10T13:52:37.289Z</time>
      </trkpt>
      <trkpt lat="46.95342" lon="-1.01373">
        <ele>197</ele>
        <time>2024-08-10T13:53:20.387Z</time>
      </trkpt>
      <trkpt lat="46.95361" lon="-1.01402">
        <ele>197</ele>
        <time>2024-08-10T13:53:24.911Z</time>
      </trkpt>
      <trkpt lat="46.95482" lon="-1.01466">
        <ele>191</ele>
        <time>2024-08-10T13:53:39.399Z</time>
      </trkpt>
      <trkpt lat="46.9553" lon="-1.015">
        <ele>191</ele>
        <time>2024-08-10T13:53:48.188Z</time>
      </trkpt>
      <trkpt lat="46.95559" lon="-1.01533">
        <ele>191</ele>
        <time>2024-08-10T13:53:54.242Z</time>
      </trkpt>
      <trkpt lat="46.95572" lon="-1.01564">
        <ele>190</ele>
        <time>2024-08-10T13:53:57.168Z</time>
      </trkpt>
      <trkpt lat="46.95607" lon="-1.01689">
        <ele>184</ele>
        <time>2024-08-10T13:54:06.382Z</time>
      </trkpt>
      <trkpt lat="46.95637" lon="-1.01807">
        <ele>185</ele>
        <time>2024-08-10T13:54:22.276Z</time>
      </trkpt>
      <trkpt lat="46.95644" lon="-1.01853">
        <ele>185</ele>
        <time>2024-08-10T13:54:27.579Z</time>
      </trkpt>
      <trkpt lat="46.95651" lon="-1.02039">
        <ele>184</ele>
        <time>2024-08-10T13:54:47.067Z</time>
      </trkpt>
      <trkpt lat="46.95662" lon="-1.02193">
        <ele>184</ele>
        <time>2024-08-10T13:55:04.491Z</time>
      </trkpt>
      <trkpt lat="46.95666" lon="-1.02242">
        <ele>185</ele>
        <time>2024-08-10T13:55:12.067Z</time>
      </trkpt>
      <trkpt lat="46.95686" lon="-1.02483">
        <ele>183</ele>
        <time>2024-08-10T13:55:36.531Z</time>
      </trkpt>
      <trkpt lat="46.95685" lon="-1.02613">
        <ele>180</ele>
        <time>2024-08-10T13:55:47.500Z</time>
      </trkpt>
      <trkpt lat="46.95678" lon="-1.02673">
        <ele>179</ele>
        <time>2024-08-10T13:55:53.043Z</time>
      </trkpt>
      <trkpt lat="46.95684" lon="-1.0287">
        <ele>176</ele>
        <time>2024-08-10T13:56:11.263Z</time>
      </trkpt>
      <trkpt lat="46.95692" lon="-1.02966">
        <ele>173</ele>
        <time>2024-08-10T13:56:18.759Z</time>
      </trkpt>
      <trkpt lat="46.957" lon="-1.03004">
        <ele>172</ele>
        <time>2024-08-10T13:56:22.039Z</time>
      </trkpt>
      <trkpt lat="46.95708" lon="-1.03034">
        <ele>170</ele>
        <time>2024-08-10T13:56:24.213Z</time>
      </trkpt>
      <trkpt lat="46.95805" lon="-1.03242">
        <ele>164</ele>
        <time>2024-08-10T13:56:45.293Z</time>
      </trkpt>
      <trkpt lat="46.9583" lon="-1.03278">
        <ele>162</ele>
        <time>2024-08-10T13:56:48.975Z</time>
      </trkpt>
      <trkpt lat="46.95876" lon="-1.0336">
        <ele>159</ele>
        <time>2024-08-10T13:56:57.441Z</time>
      </trkpt>
      <trkpt lat="46.95895" lon="-1.03406">
        <ele>158</ele>
        <time>2024-08-10T13:57:02.214Z</time>
      </trkpt>
      <trkpt lat="46.95991" lon="-1.03671">
        <ele>150</ele>
        <time>2024-08-10T13:57:26.553Z</time>
      </trkpt>
      <trkpt lat="46.96017" lon="-1.0377">
        <ele>147</ele>
        <time>2024-08-10T13:57:35.012Z</time>
      </trkpt>
      <trkpt lat="46.9604" lon="-1.03908">
        <ele>146</ele>
        <time>2024-08-10T13:57:49.549Z</time>
      </trkpt>
      <trkpt lat="46.96053" lon="-1.03963">
        <ele>146</ele>
        <time>2024-08-10T13:57:56.098Z</time>
      </trkpt>
      <trkpt lat="46.96104" lon="-1.04062">
        <ele>144</ele>
        <time>2024-08-10T13:58:07.434Z</time>
      </trkpt>
      <trkpt lat="46.96183" lon="-1.0418">
        <ele>142</ele>
        <time>2024-08-10T13:58:23.296Z</time>
      </trkpt>
      <trkpt lat="46.96238" lon="-1.04227">
        <ele>141</ele>
        <time>2024-08-10T13:58:32.404Z</time>
      </trkpt>
      <trkpt lat="46.96352" lon="-1.0429">
        <ele>137</ele>
        <time>2024-08-10T13:58:47.577Z</time>
      </trkpt>
      <trkpt lat="46.96577" lon="-1.04452">
        <ele>132</ele>
        <time>2024-08-10T13:59:22.177Z</time>
      </trkpt>
      <trkpt lat="46.96762" lon="-1.04521">
        <ele>126</ele>
        <time>2024-08-10T13:59:46.207Z</time>
      </trkpt>
      <trkpt lat="46.96807" lon="-1.04545">
        <ele>125</ele>
        <time>2024-08-10T13:59:52.765Z</time>
      </trkpt>
      <trkpt lat="46.96835" lon="-1.04586">
        <ele>126</ele>
        <time>2024-08-10T14:00:01.234Z</time>
      </trkpt>
      <trkpt lat="46.96922" lon="-1.0477">
        <ele>124</ele>
        <time>2024-08-10T14:00:23.585Z</time>
      </trkpt>
      <trkpt lat="46.96937" lon="-1.04786">
        <ele>125</ele>
        <time>2024-08-10T14:00:29.195Z</time>
      </trkpt>
      <trkpt lat="46.96956" lon="-1.04799">
        <ele>125</ele>
        <time>2024-08-10T14:00:32.652Z</time>
      </trkpt>
      <trkpt lat="46.96988" lon="-1.04811">
        <ele>125</ele>
        <time>2024-08-10T14:00:38.097Z</time>
      </trkpt>
      <trkpt lat="46.97102" lon="-1.04828">
        <ele>122</ele>
        <time>2024-08-10T14:00:53.128Z</time>
      </trkpt>
      <trkpt lat="46.97284" lon="-1.0493">
        <ele>123</ele>
        <time>2024-08-10T14:01:26.886Z</time>
      </trkpt>
      <trkpt lat="46.97318" lon="-1.04965">
        <ele>123</ele>
        <time>2024-08-10T14:01:33.735Z</time>
      </trkpt>
      <trkpt lat="46.97352" lon="-1.05021">
        <ele>125</ele>
        <time>2024-08-10T14:01:46.585Z</time>
      </trkpt>
      <trkpt lat="46.9738" lon="-1.05102">
        <ele>124</ele>
        <time>2024-08-10T14:01:55.415Z</time>
      </trkpt>
      <trkpt lat="46.97378" lon="-1.05316">
        <ele>122</ele>
        <time>2024-08-10T14:02:16.671Z</time>
      </trkpt>
      <trkpt lat="46.97378" lon="-1.0534">
        <ele>122</ele>
        <time>2024-08-10T14:02:19.371Z</time>
      </trkpt>
      <trkpt lat="46.9744" lon="-1.05371">
        <ele>120</ele>
        <time>2024-08-10T14:02:27.674Z</time>
      </trkpt>
      <trkpt lat="46.9752" lon="-1.05432">
        <ele>119</ele>
        <time>2024-08-10T14:02:41.104Z</time>
      </trkpt>
      <trkpt lat="46.97536" lon="-1.05454">
        <ele>119</ele>
        <time>2024-08-10T14:02:44.720Z</time>
      </trkpt>
      <trkpt lat="46.97672" lon="-1.05693">
        <ele>118</ele>
        <time>2024-08-10T14:03:18.216Z</time>
      </trkpt>
      <trkpt lat="46.97703" lon="-1.05732">
        <ele>118</ele>
        <time>2024-08-10T14:03:24.951Z</time>
      </trkpt>
      <trkpt lat="46.97747" lon="-1.05772">
        <ele>119</ele>
        <time>2024-08-10T14:03:35.330Z</time>
      </trkpt>
      <trkpt lat="46.97763" lon="-1.05793">
        <ele>120</ele>
        <time>2024-08-10T14:03:41.244Z</time>
      </trkpt>
      <trkpt lat="46.97882" lon="-1.06026">
        <ele>117</ele>
        <time>2024-08-10T14:04:09.797Z</time>
      </trkpt>
      <trkpt lat="46.97906" lon="-1.06064">
        <ele>116</ele>
        <time>2024-08-10T14:04:14.354Z</time>
      </trkpt>
      <trkpt lat="46.97952" lon="-1.06116">
        <ele>114</ele>
        <time>2024-08-10T14:04:21.501Z</time>
      </trkpt>
      <trkpt lat="46.97988" lon="-1.0615">
        <ele>113</ele>
        <time>2024-08-10T14:04:27.248Z</time>
      </trkpt>
      <trkpt lat="46.98025" lon="-1.06176">
        <ele>112</ele>
        <time>2024-08-10T14:04:32.710Z</time>
      </trkpt>
      <trkpt lat="46.98111" lon="-1.06224">
        <ele>109</ele>
        <time>2024-08-10T14:04:44.190Z</time>
      </trkpt>
      <trkpt lat="46.98171" lon="-1.06295">
        <ele>106</ele>
        <time>2024-08-10T14:04:53.367Z</time>
      </trkpt>
      <trkpt lat="46.98182" lon="-1.06303">
        <ele>106</ele>
        <time>2024-08-10T14:04:55.391Z</time>
      </trkpt>
      <trkpt lat="46.98247" lon="-1.06325">
        <ele>103</ele>
        <time>2024-08-10T14:05:02.992Z</time>
      </trkpt>
      <trkpt lat="46.9837" lon="-1.06409">
        <ele>102</ele>
        <time>2024-08-10T14:05:23.883Z</time>
      </trkpt>
      <trkpt lat="46.98407" lon="-1.0644">
        <ele>101</ele>
        <time>2024-08-10T14:05:29.597Z</time>
      </trkpt>
      <trkpt lat="46.98433" lon="-1.0647">
        <ele>100</ele>
        <time>2024-08-10T14:05:33.801Z</time>
      </trkpt>
      <trkpt lat="46.98489" lon="-1.06562">
        <ele>101</ele>
        <time>2024-08-10T14:05:49.397Z</time>
      </trkpt>
      <trkpt lat="46.9854" lon="-1.06615">
        <ele>102</ele>
        <time>2024-08-10T14:06:01.494Z</time>
      </trkpt>
      <trkpt lat="46.99013" lon="-1.06993">
        <ele>89</ele>
        <time>2024-08-10T14:07:13.333Z</time>
      </trkpt>
      <trkpt lat="46.99033" lon="-1.07033">
        <ele>88</ele>
        <time>2024-08-10T14:07:17.654Z</time>
      </trkpt>
      <trkpt lat="46.99055" lon="-1.07116">
        <ele>87</ele>
        <time>2024-08-10T14:07:26.286Z</time>
      </trkpt>
      <trkpt lat="46.9907" lon="-1.07147">
        <ele>87</ele>
        <time>2024-08-10T14:07:30.561Z</time>
      </trkpt>
      <trkpt lat="46.99117" lon="-1.07214">
        <ele>87</ele>
        <time>2024-08-10T14:07:41.368Z</time>
      </trkpt>
      <trkpt lat="46.99176" lon="-1.07276">
        <ele>87</ele>
        <time>2024-08-10T14:07:53.335Z</time>
      </trkpt>
      <trkpt lat="46.99243" lon="-1.07315">
        <ele>86</ele>
        <time>2024-08-10T14:08:03.812Z</time>
      </trkpt>
      <trkpt lat="46.99337" lon="-1.07361">
        <ele>83</ele>
        <time>2024-08-10T14:08:16.398Z</time>
      </trkpt>
      <trkpt lat="46.99593" lon="-1.07428">
        <ele>68</ele>
        <time>2024-08-10T14:08:43.605Z</time>
      </trkpt>
      <trkpt lat="46.99609" lon="-1.07438">
        <ele>66</ele>
        <time>2024-08-10T14:08:45.326Z</time>
      </trkpt>
      <trkpt lat="46.99619" lon="-1.07452">
        <ele>65</ele>
        <time>2024-08-10T14:08:46.693Z</time>
      </trkpt>
      <trkpt lat="46.99648" lon="-1.07506">
        <ele>64</ele>
        <time>2024-08-10T14:08:53.089Z</time>
      </trkpt>
      <trkpt lat="46.99663" lon="-1.07488">
        <ele>63</ele>
        <time>2024-08-10T14:08:55.200Z</time>
      </trkpt>
      <trkpt lat="46.99682" lon="-1.07468">
        <ele>62</ele>
        <time>2024-08-10T14:08:57.907Z</time>
      </trkpt>
      <trkpt lat="46.9971" lon="-1.07453">
        <ele>62</ele>
        <time>2024-08-10T14:09:02.821Z</time>
      </trkpt>
      <trkpt lat="46.9974" lon="-1.07445">
        <ele>63</ele>
        <time>2024-08-10T14:09:09.930Z</time>
      </trkpt>
      <trkpt lat="46.99785" lon="-1.07445">
        <ele>63</ele>
        <time>2024-08-10T14:09:17.349Z</time>
      </trkpt>
      <trkpt lat="46.99802" lon="-1.07709">
        <ele>77</ele>
        <time>2024-08-10T14:10:32.300Z</time>
      </trkpt>
      <trkpt lat="46.99828" lon="-1.07988">
        <ele>85</ele>
        <time>2024-08-10T14:11:22.068Z</time>
      </trkpt>
      <trkpt lat="46.9983" lon="-1.08146">
        <ele>91</ele>
        <time>2024-08-10T14:11:55.414Z</time>
      </trkpt>
      <trkpt lat="46.99835" lon="-1.08189">
        <ele>90</ele>
        <time>2024-08-10T14:11:59.097Z</time>
      </trkpt>
      <trkpt lat="46.99844" lon="-1.08219">
        <ele>91</ele>
        <time>2024-08-10T14:12:05.114Z</time>
      </trkpt>
      <trkpt lat="46.99888" lon="-1.08312">
        <ele>97</ele>
        <time>2024-08-10T14:12:37.243Z</time>
      </trkpt>
      <trkpt lat="46.99906" lon="-1.08389">
        <ele>100</ele>
        <time>2024-08-10T14:12:54.059Z</time>
      </trkpt>
      <trkpt lat="46.9998" lon="-1.08564">
        <ele>106</ele>
        <time>2024-08-10T14:13:30.930Z</time>
      </trkpt>
      <trkpt lat="47.00092" lon="-1.08805">
        <ele>106</ele>
        <time>2024-08-10T14:14:03.720Z</time>
      </trkpt>
      <trkpt lat="47.0015" lon="-1.08903">
        <ele>107</ele>
        <time>2024-08-10T14:14:20.029Z</time>
      </trkpt>
      <trkpt lat="47.00205" lon="-1.08978">
        <ele>108</ele>
        <time>2024-08-10T14:14:34.161Z</time>
      </trkpt>
      <trkpt lat="47.00282" lon="-1.09064">
        <ele>107</ele>
        <time>2024-08-10T14:14:48.672Z</time>
      </trkpt>
      <trkpt lat="47.00378" lon="-1.09196">
        <ele>105</ele>
        <time>2024-08-10T14:15:07.580Z</time>
      </trkpt>
      <trkpt lat="47.00394" lon="-1.09228">
        <ele>105</ele>
        <time>2024-08-10T14:15:12.041Z</time>
      </trkpt>
      <trkpt lat="47.00542" lon="-1.09573">
        <ele>106</ele>
        <time>2024-08-10T14:15:59.477Z</time>
      </trkpt>
      <trkpt lat="47.00557" lon="-1.09593">
        <ele>107</ele>
        <time>2024-08-10T14:16:05.258Z</time>
      </trkpt>
      <trkpt lat="47.00646" lon="-1.09658">
        <ele>106</ele>
        <time>2024-08-10T14:16:20.200Z</time>
      </trkpt>
      <trkpt lat="47.00663" lon="-1.09675">
        <ele>106</ele>
        <time>2024-08-10T14:16:23.592Z</time>
      </trkpt>
      <trkpt lat="47.00729" lon="-1.09763">
        <ele>108</ele>
        <time>2024-08-10T14:16:42.087Z</time>
      </trkpt>
      <trkpt lat="47.00803" lon="-1.09867">
        <ele>107</ele>
        <time>2024-08-10T14:16:57.532Z</time>
      </trkpt>
      <trkpt lat="47.00819" lon="-1.09903">
        <ele>106</ele>
        <time>2024-08-10T14:17:01.145Z</time>
      </trkpt>
      <trkpt lat="47.00864" lon="-1.10014">
        <ele>108</ele>
        <time>2024-08-10T14:17:19.460Z</time>
      </trkpt>
      <trkpt lat="47.00926" lon="-1.10148">
        <ele>110</ele>
        <time>2024-08-10T14:17:41.312Z</time>
      </trkpt>
      <trkpt lat="47.01007" lon="-1.10285">
        <ele>109</ele>
        <time>2024-08-10T14:18:00.225Z</time>
      </trkpt>
      <trkpt lat="47.01058" lon="-1.10388">
        <ele>106</ele>
        <time>2024-08-10T14:18:10.892Z</time>
      </trkpt>
      <trkpt lat="47.0108" lon="-1.10455">
        <ele>106</ele>
        <time>2024-08-10T14:18:19.252Z</time>
      </trkpt>
      <trkpt lat="47.011" lon="-1.10554">
        <ele>105</ele>
        <time>2024-08-10T14:18:29.454Z</time>
      </trkpt>
      <trkpt lat="47.01109" lon="-1.10736">
        <ele>102</ele>
        <time>2024-08-10T14:18:46.049Z</time>
      </trkpt>
      <trkpt lat="47.01123" lon="-1.10815">
        <ele>102</ele>
        <time>2024-08-10T14:18:55.225Z</time>
      </trkpt>
      <trkpt lat="47.01163" lon="-1.10948">
        <ele>99</ele>
        <time>2024-08-10T14:19:07.814Z</time>
      </trkpt>
      <trkpt lat="47.01192" lon="-1.1103">
        <ele>96</ele>
        <time>2024-08-10T14:19:14.859Z</time>
      </trkpt>
      <trkpt lat="47.01245" lon="-1.11108">
        <ele>94</ele>
        <time>2024-08-10T14:19:24.672Z</time>
      </trkpt>
      <trkpt lat="47.01258" lon="-1.11172">
        <ele>92</ele>
        <time>2024-08-10T14:19:29.898Z</time>
      </trkpt>
      <trkpt lat="47.0114" lon="-1.11085">
        <ele>98</ele>
        <time>2024-08-10T14:20:05.755Z</time>
      </trkpt>
      <trkpt lat="47.01092" lon="-1.11042">
        <ele>101</ele>
        <time>2024-08-10T14:20:22.639Z</time>
      </trkpt>
      <trkpt lat="47.01075" lon="-1.11034">
        <ele>101</ele>
        <time>2024-08-10T14:20:25.582Z</time>
      </trkpt>
      <trkpt lat="47.00727" lon="-1.10963">
        <ele>98</ele>
        <time>2024-08-10T14:21:19.108Z</time>
      </trkpt>
      <trkpt lat="47.00468" lon="-1.10902">
        <ele>90</ele>
        <time>2024-08-10T14:21:52.367Z</time>
      </trkpt>
      <trkpt lat="47.00192" lon="-1.10827">
        <ele>89</ele>
        <time>2024-08-10T14:22:37.119Z</time>
      </trkpt>
      <trkpt lat="47.00105" lon="-1.10811">
        <ele>87</ele>
        <time>2024-08-10T14:22:48.937Z</time>
      </trkpt>
      <trkpt lat="46.99685" lon="-1.10864">
        <ele>85</ele>
        <time>2024-08-10T14:23:55.414Z</time>
      </trkpt>
      <trkpt lat="46.99634" lon="-1.10901">
        <ele>85</ele>
        <time>2024-08-10T14:24:04.795Z</time>
      </trkpt>
      <trkpt lat="46.9962" lon="-1.10918">
        <ele>85</ele>
        <time>2024-08-10T14:24:07.792Z</time>
      </trkpt>
      <trkpt lat="46.99606" lon="-1.10944">
        <ele>85</ele>
        <time>2024-08-10T14:24:11.517Z</time>
      </trkpt>
      <trkpt lat="46.9957" lon="-1.11036">
        <ele>85</ele>
        <time>2024-08-10T14:24:23.443Z</time>
      </trkpt>
      <trkpt lat="46.99556" lon="-1.11056">
        <ele>83</ele>
        <time>2024-08-10T14:24:25.376Z</time>
      </trkpt>
      <trkpt lat="46.99518" lon="-1.11088">
        <ele>81</ele>
        <time>2024-08-10T14:24:30.346Z</time>
      </trkpt>
      <trkpt lat="46.99471" lon="-1.111">
        <ele>77</ele>
        <time>2024-08-10T14:24:35.065Z</time>
      </trkpt>
      <trkpt lat="46.99455" lon="-1.11097">
        <ele>77</ele>
        <time>2024-08-10T14:24:37.724Z</time>
      </trkpt>
      <trkpt lat="46.99427" lon="-1.1108">
        <ele>75</ele>
        <time>2024-08-10T14:24:40.735Z</time>
      </trkpt>
      <trkpt lat="46.99396" lon="-1.11028">
        <ele>75</ele>
        <time>2024-08-10T14:24:48.501Z</time>
      </trkpt>
      <trkpt lat="46.99378" lon="-1.10973">
        <ele>76</ele>
        <time>2024-08-10T14:24:57.282Z</time>
      </trkpt>
      <trkpt lat="46.9936" lon="-1.10895">
        <ele>75</ele>
        <time>2024-08-10T14:25:05.175Z</time>
      </trkpt>
      <trkpt lat="46.99332" lon="-1.10866">
        <ele>73</ele>
        <time>2024-08-10T14:25:08.746Z</time>
      </trkpt>
      <trkpt lat="46.99304" lon="-1.10855">
        <ele>72</ele>
        <time>2024-08-10T14:25:12.311Z</time>
      </trkpt>
      <trkpt lat="46.99291" lon="-1.10855">
        <ele>72</ele>
        <time>2024-08-10T14:25:14.454Z</time>
      </trkpt>
      <trkpt lat="46.99241" lon="-1.10862">
        <ele>76</ele>
        <time>2024-08-10T14:25:35.911Z</time>
      </trkpt>
      <trkpt lat="46.99179" lon="-1.10882">
        <ele>78</ele>
        <time>2024-08-10T14:25:50.490Z</time>
      </trkpt>
      <trkpt lat="46.99064" lon="-1.10979">
        <ele>79</ele>
        <time>2024-08-10T14:26:14.030Z</time>
      </trkpt>
      <trkpt lat="46.99032" lon="-1.10995">
        <ele>82</ele>
        <time>2024-08-10T14:26:30.352Z</time>
      </trkpt>
      <trkpt lat="46.98966" lon="-1.11008">
        <ele>84</ele>
        <time>2024-08-10T14:26:45.389Z</time>
      </trkpt>
      <trkpt lat="46.98821" lon="-1.11019">
        <ele>88</ele>
        <time>2024-08-10T14:27:17.260Z</time>
      </trkpt>
      <trkpt lat="46.98567" lon="-1.11066">
        <ele>94</ele>
        <time>2024-08-10T14:28:10.936Z</time>
      </trkpt>
      <trkpt lat="46.98476" lon="-1.11091">
        <ele>92</ele>
        <time>2024-08-10T14:28:23.540Z</time>
      </trkpt>
      <trkpt lat="46.98226" lon="-1.11175">
        <ele>89</ele>
        <time>2024-08-10T14:29:01.530Z</time>
      </trkpt>
      <trkpt lat="46.98057" lon="-1.11214">
        <ele>89</ele>
        <time>2024-08-10T14:29:29.734Z</time>
      </trkpt>
      <trkpt lat="46.97949" lon="-1.11234">
        <ele>87</ele>
        <time>2024-08-10T14:29:44.958Z</time>
      </trkpt>
      <trkpt lat="46.97882" lon="-1.11238">
        <ele>85</ele>
        <time>2024-08-10T14:29:53.504Z</time>
      </trkpt>
      <trkpt lat="46.97702" lon="-1.11229">
        <ele>86</ele>
        <time>2024-08-10T14:30:24.836Z</time>
      </trkpt>
      <trkpt lat="46.97472" lon="-1.11206">
        <ele>85</ele>
        <time>2024-08-10T14:31:01.327Z</time>
      </trkpt>
      <trkpt lat="46.97404" lon="-1.11218">
        <ele>83</ele>
        <time>2024-08-10T14:31:10.099Z</time>
      </trkpt>
      <trkpt lat="46.9727" lon="-1.11282">
        <ele>84</ele>
        <time>2024-08-10T14:31:34.995Z</time>
      </trkpt>
      <trkpt lat="46.97031" lon="-1.11442">
        <ele>92</ele>
        <time>2024-08-10T14:32:34.607Z</time>
      </trkpt>
      <trkpt lat="46.96769" lon="-1.1161">
        <ele>108</ele>
        <time>2024-08-10T14:34:03.411Z</time>
      </trkpt>
      <trkpt lat="46.96665" lon="-1.11713">
        <ele>107</ele>
        <time>2024-08-10T14:34:22.633Z</time>
      </trkpt>
      <trkpt lat="46.96682" lon="-1.11742">
        <ele>107</ele>
        <time>2024-08-10T14:34:26.934Z</time>
      </trkpt>
      <trkpt lat="46.96734" lon="-1.1182">
        <ele>106</ele>
        <time>2024-08-10T14:34:37.789Z</time>
      </trkpt>
      <trkpt lat="46.96752" lon="-1.11854">
        <ele>106</ele>
        <time>2024-08-10T14:34:42.630Z</time>
      </trkpt>
      <trkpt lat="46.96763" lon="-1.11881">
        <ele>106</ele>
        <time>2024-08-10T14:34:46.168Z</time>
      </trkpt>
      <trkpt lat="46.9678" lon="-1.1196">
        <ele>103</ele>
        <time>2024-08-10T14:34:52.262Z</time>
      </trkpt>
      <trkpt lat="46.96783" lon="-1.12187">
        <ele>101</ele>
        <time>2024-08-10T14:35:14.969Z</time>
      </trkpt>
      <trkpt lat="46.96781" lon="-1.12257">
        <ele>100</ele>
        <time>2024-08-10T14:35:21.515Z</time>
      </trkpt>
      <trkpt lat="46.96784" lon="-1.12263">
        <ele>100</ele>
        <time>2024-08-10T14:35:22.352Z</time>
      </trkpt>
      <trkpt lat="46.96783" lon="-1.12276">
        <ele>100</ele>
        <time>2024-08-10T14:35:23.823Z</time>
      </trkpt>
      <trkpt lat="46.9677" lon="-1.12387">
        <ele>100</ele>
        <time>2024-08-10T14:35:36.494Z</time>
      </trkpt>
      <trkpt lat="46.96765" lon="-1.12395">
        <ele>100</ele>
        <time>2024-08-10T14:35:37.714Z</time>
      </trkpt>
      <trkpt lat="46.96764" lon="-1.12438">
        <ele>101</ele>
        <time>2024-08-10T14:35:44.661Z</time>
      </trkpt>
      <trkpt lat="46.96772" lon="-1.12503">
        <ele>100</ele>
        <time>2024-08-10T14:35:50.767Z</time>
      </trkpt>
      <trkpt lat="46.96798" lon="-1.12639">
        <ele>99</ele>
        <time>2024-08-10T14:36:05.211Z</time>
      </trkpt>
      <trkpt lat="46.96888" lon="-1.13145">
        <ele>97</ele>
        <time>2024-08-10T14:37:01.038Z</time>
      </trkpt>
      <trkpt lat="46.96897" lon="-1.1322">
        <ele>97</ele>
        <time>2024-08-10T14:37:09.605Z</time>
      </trkpt>
      <trkpt lat="46.96896" lon="-1.13297">
        <ele>97</ele>
        <time>2024-08-10T14:37:18.269Z</time>
      </trkpt>
      <trkpt lat="46.969" lon="-1.13326">
        <ele>97</ele>
        <time>2024-08-10T14:37:21.598Z</time>
      </trkpt>
      <trkpt lat="46.96926" lon="-1.13392">
        <ele>98</ele>
        <time>2024-08-10T14:37:32.013Z</time>
      </trkpt>
      <trkpt lat="46.96994" lon="-1.13525">
        <ele>98</ele>
        <time>2024-08-10T14:37:50.709Z</time>
      </trkpt>
      <trkpt lat="46.9706" lon="-1.13676">
        <ele>98</ele>
        <time>2024-08-10T14:38:10.881Z</time>
      </trkpt>
      <trkpt lat="46.97109" lon="-1.13817">
        <ele>98</ele>
        <time>2024-08-10T14:38:28.682Z</time>
      </trkpt>
      <trkpt lat="46.97148" lon="-1.13959">
        <ele>98</ele>
        <time>2024-08-10T14:38:45.901Z</time>
      </trkpt>
      <trkpt lat="46.97163" lon="-1.14034">
        <ele>97</ele>
        <time>2024-08-10T14:38:53.335Z</time>
      </trkpt>
      <trkpt lat="46.97171" lon="-1.1412">
        <ele>97</ele>
        <time>2024-08-10T14:39:03.099Z</time>
      </trkpt>
      <trkpt lat="46.97162" lon="-1.14881">
        <ele>94</ele>
        <time>2024-08-10T14:40:24.226Z</time>
      </trkpt>
      <trkpt lat="46.97169" lon="-1.14911">
        <ele>94</ele>
        <time>2024-08-10T14:40:27.793Z</time>
      </trkpt>
      <trkpt lat="46.97188" lon="-1.14941">
        <ele>94</ele>
        <time>2024-08-10T14:40:32.397Z</time>
      </trkpt>
      <trkpt lat="46.97577" lon="-1.15089">
        <ele>91</ele>
        <time>2024-08-10T14:41:34.219Z</time>
      </trkpt>
      <trkpt lat="46.97657" lon="-1.15126">
        <ele>90</ele>
        <time>2024-08-10T14:41:46.620Z</time>
      </trkpt>
      <trkpt lat="46.97683" lon="-1.15142">
        <ele>91</ele>
        <time>2024-08-10T14:41:53.403Z</time>
      </trkpt>
      <trkpt lat="46.97774" lon="-1.1526">
        <ele>91</ele>
        <time>2024-08-10T14:42:13.434Z</time>
      </trkpt>
      <trkpt lat="46.97812" lon="-1.15369">
        <ele>91</ele>
        <time>2024-08-10T14:42:27.202Z</time>
      </trkpt>
      <trkpt lat="46.97846" lon="-1.15559">
        <ele>91</ele>
        <time>2024-08-10T14:42:49.296Z</time>
      </trkpt>
      <trkpt lat="46.97861" lon="-1.15628">
        <ele>92</ele>
        <time>2024-08-10T14:42:59.299Z</time>
      </trkpt>
      <trkpt lat="46.97898" lon="-1.1575">
        <ele>91</ele>
        <time>2024-08-10T14:43:12.877Z</time>
      </trkpt>
      <trkpt lat="46.97917" lon="-1.15836">
        <ele>91</ele>
        <time>2024-08-10T14:43:23.045Z</time>
      </trkpt>
      <trkpt lat="46.97922" lon="-1.159">
        <ele>90</ele>
        <time>2024-08-10T14:43:28.972Z</time>
      </trkpt>
      <trkpt lat="46.9792" lon="-1.15934">
        <ele>90</ele>
        <time>2024-08-10T14:43:32.810Z</time>
      </trkpt>
      <trkpt lat="46.97906" lon="-1.16007">
        <ele>90</ele>
        <time>2024-08-10T14:43:41.339Z</time>
      </trkpt>
      <trkpt lat="46.97869" lon="-1.16159">
        <ele>90</ele>
        <time>2024-08-10T14:43:59.491Z</time>
      </trkpt>
      <trkpt lat="46.97852" lon="-1.16266">
        <ele>89</ele>
        <time>2024-08-10T14:44:10.435Z</time>
      </trkpt>
      <trkpt lat="46.97848" lon="-1.16347">
        <ele>90</ele>
        <time>2024-08-10T14:44:21.393Z</time>
      </trkpt>
      <trkpt lat="46.97954" lon="-1.16533">
        <ele>90</ele>
        <time>2024-08-10T14:44:48.652Z</time>
      </trkpt>
      <trkpt lat="46.98068" lon="-1.16666">
        <ele>89</ele>
        <time>2024-08-10T14:45:11.187Z</time>
      </trkpt>
      <trkpt lat="46.98137" lon="-1.16756">
        <ele>87</ele>
        <time>2024-08-10T14:45:23.756Z</time>
      </trkpt>
      <trkpt lat="46.98249" lon="-1.16927">
        <ele>86</ele>
        <time>2024-08-10T14:45:48.924Z</time>
      </trkpt>
      <trkpt lat="46.98204" lon="-1.17039">
        <ele>87</ele>
        <time>2024-08-10T14:46:05.263Z</time>
      </trkpt>
      <trkpt lat="46.98077" lon="-1.173">
        <ele>85</ele>
        <time>2024-08-10T14:46:38.402Z</time>
      </trkpt>
      <trkpt lat="46.98019" lon="-1.17411">
        <ele>82</ele>
        <time>2024-08-10T14:46:50.407Z</time>
      </trkpt>
      <trkpt lat="46.98001" lon="-1.17434">
        <ele>82</ele>
        <time>2024-08-10T14:46:54.344Z</time>
      </trkpt>
      <trkpt lat="46.97982" lon="-1.17443">
        <ele>81</ele>
        <time>2024-08-10T14:46:56.540Z</time>
      </trkpt>
      <trkpt lat="46.97948" lon="-1.17475">
        <ele>81</ele>
        <time>2024-08-10T14:47:03.202Z</time>
      </trkpt>
      <trkpt lat="46.97916" lon="-1.17519">
        <ele>83</ele>
        <time>2024-08-10T14:47:15.137Z</time>
      </trkpt>
      <trkpt lat="46.97859" lon="-1.17623">
        <ele>83</ele>
        <time>2024-08-10T14:47:30.141Z</time>
      </trkpt>
      <trkpt lat="46.97731" lon="-1.17738">
        <ele>87</ele>
        <time>2024-08-10T14:48:02.762Z</time>
      </trkpt>
      <trkpt lat="46.97667" lon="-1.17804">
        <ele>88</ele>
        <time>2024-08-10T14:48:17.405Z</time>
      </trkpt>
      <trkpt lat="46.97649" lon="-1.17833">
        <ele>87</ele>
        <time>2024-08-10T14:48:20.624Z</time>
      </trkpt>
      <trkpt lat="46.97637" lon="-1.17866">
        <ele>85</ele>
        <time>2024-08-10T14:48:23.148Z</time>
      </trkpt>
      <trkpt lat="46.97616" lon="-1.17884">
        <ele>85</ele>
        <time>2024-08-10T14:48:27.158Z</time>
      </trkpt>
      <trkpt lat="46.97503" lon="-1.18009">
        <ele>86</ele>
        <time>2024-08-10T14:48:52.158Z</time>
      </trkpt>
      <trkpt lat="46.97451" lon="-1.18054">
        <ele>85</ele>
        <time>2024-08-10T14:49:00.734Z</time>
      </trkpt>
      <trkpt lat="46.97349" lon="-1.18117">
        <ele>84</ele>
        <time>2024-08-10T14:49:17.522Z</time>
      </trkpt>
      <trkpt lat="46.97251" lon="-1.18186">
        <ele>86</ele>
        <time>2024-08-10T14:49:39.102Z</time>
      </trkpt>
      <trkpt lat="46.97244" lon="-1.18195">
        <ele>86</ele>
        <time>2024-08-10T14:49:40.637Z</time>
      </trkpt>
      <trkpt lat="46.97113" lon="-1.18352">
        <ele>83</ele>
        <time>2024-08-10T14:50:04.432Z</time>
      </trkpt>
      <trkpt lat="46.97085" lon="-1.18399">
        <ele>84</ele>
        <time>2024-08-10T14:50:13.364Z</time>
      </trkpt>
      <trkpt lat="46.97053" lon="-1.18485">
        <ele>85</ele>
        <time>2024-08-10T14:50:26.158Z</time>
      </trkpt>
      <trkpt lat="46.97042" lon="-1.18504">
        <ele>85</ele>
        <time>2024-08-10T14:50:28.961Z</time>
      </trkpt>
      <trkpt lat="46.96975" lon="-1.18577">
        <ele>88</ele>
        <time>2024-08-10T14:50:49.155Z</time>
      </trkpt>
      <trkpt lat="46.96883" lon="-1.18695">
        <ele>88</ele>
        <time>2024-08-10T14:51:09.311Z</time>
      </trkpt>
      <trkpt lat="46.9685" lon="-1.18742">
        <ele>88</ele>
        <time>2024-08-10T14:51:16.898Z</time>
      </trkpt>
      <trkpt lat="46.96786" lon="-1.18866">
        <ele>85</ele>
        <time>2024-08-10T14:51:30.585Z</time>
      </trkpt>
      <trkpt lat="46.96774" lon="-1.18885">
        <ele>85</ele>
        <time>2024-08-10T14:51:33.497Z</time>
      </trkpt>
      <trkpt lat="46.96763" lon="-1.18894">
        <ele>85</ele>
        <time>2024-08-10T14:51:35.574Z</time>
      </trkpt>
      <trkpt lat="46.96737" lon="-1.18892">
        <ele>85</ele>
        <time>2024-08-10T14:51:39.866Z</time>
      </trkpt>
      <trkpt lat="46.96688" lon="-1.18859">
        <ele>86</ele>
        <time>2024-08-10T14:51:50.588Z</time>
      </trkpt>
      <trkpt lat="46.96673" lon="-1.18854">
        <ele>86</ele>
        <time>2024-08-10T14:51:53.124Z</time>
      </trkpt>
      <trkpt lat="46.96586" lon="-1.18886">
        <ele>87</ele>
        <time>2024-08-10T14:52:09.629Z</time>
      </trkpt>
      <trkpt lat="46.96508" lon="-1.18928">
        <ele>84</ele>
        <time>2024-08-10T14:52:19.726Z</time>
      </trkpt>
      <trkpt lat="46.96497" lon="-1.18942">
        <ele>84</ele>
        <time>2024-08-10T14:52:22.128Z</time>
      </trkpt>
      <trkpt lat="46.96483" lon="-1.18976">
        <ele>84</ele>
        <time>2024-08-10T14:52:26.595Z</time>
      </trkpt>
      <trkpt lat="46.96447" lon="-1.19087">
        <ele>83</ele>
        <time>2024-08-10T14:52:38.994Z</time>
      </trkpt>
      <trkpt lat="46.96435" lon="-1.19119">
        <ele>84</ele>
        <time>2024-08-10T14:52:45.332Z</time>
      </trkpt>
      <trkpt lat="46.96425" lon="-1.19135">
        <ele>84</ele>
        <time>2024-08-10T14:52:47.773Z</time>
      </trkpt>
      <trkpt lat="46.96392" lon="-1.19167">
        <ele>84</ele>
        <time>2024-08-10T14:52:54.297Z</time>
      </trkpt>
      <trkpt lat="46.96314" lon="-1.19225">
        <ele>81</ele>
        <time>2024-08-10T14:53:05.069Z</time>
      </trkpt>
      <trkpt lat="46.96232" lon="-1.19277">
        <ele>81</ele>
        <time>2024-08-10T14:53:19.799Z</time>
      </trkpt>
      <trkpt lat="46.96184" lon="-1.19299">
        <ele>82</ele>
        <time>2024-08-10T14:53:29.943Z</time>
      </trkpt>
      <trkpt lat="46.96111" lon="-1.19324">
        <ele>84</ele>
        <time>2024-08-10T14:53:46.238Z</time>
      </trkpt>
      <trkpt lat="46.96077" lon="-1.19326">
        <ele>85</ele>
        <time>2024-08-10T14:53:53.865Z</time>
      </trkpt>
      <trkpt lat="46.95997" lon="-1.19316">
        <ele>83</ele>
        <time>2024-08-10T14:54:04.504Z</time>
      </trkpt>
      <trkpt lat="46.95876" lon="-1.1928">
        <ele>85</ele>
        <time>2024-08-10T14:54:28.447Z</time>
      </trkpt>
      <trkpt lat="46.95845" lon="-1.19289">
        <ele>85</ele>
        <time>2024-08-10T14:54:33.657Z</time>
      </trkpt>
      <trkpt lat="46.95817" lon="-1.1925">
        <ele>85</ele>
        <time>2024-08-10T14:54:40.026Z</time>
      </trkpt>
      <trkpt lat="46.9577" lon="-1.19208">
        <ele>86</ele>
        <time>2024-08-10T14:54:50.927Z</time>
      </trkpt>
      <trkpt lat="46.9574" lon="-1.19188">
        <ele>85</ele>
        <time>2024-08-10T14:54:55.111Z</time>
      </trkpt>
      <trkpt lat="46.95702" lon="-1.19174">
        <ele>85</ele>
        <time>2024-08-10T14:55:01.570Z</time>
      </trkpt>
      <trkpt lat="46.95666" lon="-1.19171">
        <ele>84</ele>
        <time>2024-08-10T14:55:06.242Z</time>
      </trkpt>
      <trkpt lat="46.95627" lon="-1.19175">
        <ele>84</ele>
        <time>2024-08-10T14:55:12.687Z</time>
      </trkpt>
      <trkpt lat="46.956" lon="-1.19169">
        <ele>85</ele>
        <time>2024-08-10T14:55:19.347Z</time>
      </trkpt>
      <trkpt lat="46.95466" lon="-1.19187">
        <ele>84</ele>
        <time>2024-08-10T14:55:40.052Z</time>
      </trkpt>
      <trkpt lat="46.9529" lon="-1.19178">
        <ele>85</ele>
        <time>2024-08-10T14:56:10.726Z</time>
      </trkpt>
      <trkpt lat="46.95193" lon="-1.19214">
        <ele>82</ele>
        <time>2024-08-10T14:56:23.464Z</time>
      </trkpt>
      <trkpt lat="46.95146" lon="-1.19227">
        <ele>81</ele>
        <time>2024-08-10T14:56:30.013Z</time>
      </trkpt>
      <trkpt lat="46.95128" lon="-1.19225">
        <ele>80</ele>
        <time>2024-08-10T14:56:31.930Z</time>
      </trkpt>
      <trkpt lat="46.95107" lon="-1.19214">
        <ele>80</ele>
        <time>2024-08-10T14:56:35.607Z</time>
      </trkpt>
      <trkpt lat="46.95078" lon="-1.19187">
        <ele>80</ele>
        <time>2024-08-10T14:56:41.271Z</time>
      </trkpt>
      <trkpt lat="46.9501" lon="-1.19109">
        <ele>81</ele>
        <time>2024-08-10T14:56:57.234Z</time>
      </trkpt>
      <trkpt lat="46.94994" lon="-1.19079">
        <ele>81</ele>
        <time>2024-08-10T14:57:01.518Z</time>
      </trkpt>
      <trkpt lat="46.9499" lon="-1.19054">
        <ele>81</ele>
        <time>2024-08-10T14:57:04.408Z</time>
      </trkpt>
      <trkpt lat="46.9502" lon="-1.1904">
        <ele>80</ele>
        <time>2024-08-10T14:57:08.361Z</time>
      </trkpt>
      <trkpt lat="46.95029" lon="-1.19031">
        <ele>80</ele>
        <time>2024-08-10T14:57:10.158Z</time>
      </trkpt>
      <trkpt lat="46.95033" lon="-1.19019">
        <ele>79</ele>
        <time>2024-08-10T14:57:11.059Z</time>
      </trkpt>
      <trkpt lat="46.95029" lon="-1.18984">
        <ele>79</ele>
        <time>2024-08-10T14:57:15.053Z</time>
      </trkpt>
      <trkpt lat="46.95018" lon="-1.18956">
        <ele>79</ele>
        <time>2024-08-10T14:57:18.689Z</time>
      </trkpt>
      <trkpt lat="46.94975" lon="-1.18876">
        <ele>78</ele>
        <time>2024-08-10T14:57:28.746Z</time>
      </trkpt>
      <trkpt lat="46.94964" lon="-1.18834">
        <ele>77</ele>
        <time>2024-08-10T14:57:32.578Z</time>
      </trkpt>
      <trkpt lat="46.94974" lon="-1.18633">
        <ele>79</ele>
        <time>2024-08-10T14:57:58.795Z</time>
      </trkpt>
      <trkpt lat="46.94984" lon="-1.18517">
        <ele>82</ele>
        <time>2024-08-10T14:58:18.484Z</time>
      </trkpt>
      <trkpt lat="46.95001" lon="-1.18404">
        <ele>81</ele>
        <time>2024-08-10T14:58:30.086Z</time>
      </trkpt>
      <trkpt lat="46.95039" lon="-1.18201">
        <ele>78</ele>
        <time>2024-08-10T14:58:49.764Z</time>
      </trkpt>
      <trkpt lat="46.95061" lon="-1.18137">
        <ele>77</ele>
        <time>2024-08-10T14:58:56.488Z</time>
      </trkpt>
      <trkpt lat="46.95299" lon="-1.17609">
        <ele>85</ele>
        <time>2024-08-10T15:00:22.335Z</time>
      </trkpt>
      <trkpt lat="46.95263" lon="-1.17507">
        <ele>85</ele>
        <time>2024-08-10T15:00:35.257Z</time>
      </trkpt>
      <trkpt lat="46.95219" lon="-1.17469">
        <ele>85</ele>
        <time>2024-08-10T15:00:43.677Z</time>
      </trkpt>
      <trkpt lat="46.95207" lon="-1.17453">
        <ele>85</ele>
        <time>2024-08-10T15:00:46.352Z</time>
      </trkpt>
      <trkpt lat="46.95187" lon="-1.17411">
        <ele>85</ele>
        <time>2024-08-10T15:00:52.115Z</time>
      </trkpt>
      <trkpt lat="46.95162" lon="-1.17348">
        <ele>82</ele>
        <time>2024-08-10T15:00:57.233Z</time>
      </trkpt>
      <trkpt lat="46.95159" lon="-1.1733">
        <ele>81</ele>
        <time>2024-08-10T15:00:58.484Z</time>
      </trkpt>
      <trkpt lat="46.95152" lon="-1.17225">
        <ele>79</ele>
        <time>2024-08-10T15:01:07.812Z</time>
      </trkpt>
      <trkpt lat="46.95144" lon="-1.17209">
        <ele>77</ele>
        <time>2024-08-10T15:01:09.151Z</time>
      </trkpt>
      <trkpt lat="46.95126" lon="-1.17201">
        <ele>76</ele>
        <time>2024-08-10T15:01:11.178Z</time>
      </trkpt>
      <trkpt lat="46.95065" lon="-1.17193">
        <ele>76</ele>
        <time>2024-08-10T15:01:21.274Z</time>
      </trkpt>
      <trkpt lat="46.95032" lon="-1.17181">
        <ele>78</ele>
        <time>2024-08-10T15:01:32.239Z</time>
      </trkpt>
      <trkpt lat="46.95011" lon="-1.17189">
        <ele>79</ele>
        <time>2024-08-10T15:01:38.178Z</time>
      </trkpt>
      <trkpt lat="46.94984" lon="-1.1719">
        <ele>79</ele>
        <time>2024-08-10T15:01:42.631Z</time>
      </trkpt>
      <trkpt lat="46.94952" lon="-1.17168">
        <ele>80</ele>
        <time>2024-08-10T15:01:50.455Z</time>
      </trkpt>
      <trkpt lat="46.94928" lon="-1.17145">
        <ele>81</ele>
        <time>2024-08-10T15:01:57.306Z</time>
      </trkpt>
      <trkpt lat="46.94931" lon="-1.17102">
        <ele>81</ele>
        <time>2024-08-10T15:02:02.170Z</time>
      </trkpt>
      <trkpt lat="46.94982" lon="-1.16965">
        <ele>78</ele>
        <time>2024-08-10T15:02:15.925Z</time>
      </trkpt>
      <trkpt lat="46.94958" lon="-1.16818">
        <ele>78</ele>
        <time>2024-08-10T15:02:32.935Z</time>
      </trkpt>
      <trkpt lat="46.94945" lon="-1.16645">
        <ele>78</ele>
        <time>2024-08-10T15:02:52.522Z</time>
      </trkpt>
      <trkpt lat="46.9494" lon="-1.16498">
        <ele>80</ele>
        <time>2024-08-10T15:03:12.791Z</time>
      </trkpt>
      <trkpt lat="46.94972" lon="-1.16344">
        <ele>83</ele>
        <time>2024-08-10T15:03:36.845Z</time>
      </trkpt>
      <trkpt lat="46.94983" lon="-1.16244">
        <ele>83</ele>
        <time>2024-08-10T15:03:48.244Z</time>
      </trkpt>
      <trkpt lat="46.9498" lon="-1.16156">
        <ele>83</ele>
        <time>2024-08-10T15:03:58.159Z</time>
      </trkpt>
      <trkpt lat="46.94971" lon="-1.16066">
        <ele>85</ele>
        <time>2024-08-10T15:04:12.537Z</time>
      </trkpt>
      <trkpt lat="46.94888" lon="-1.16078">
        <ele>89</ele>
        <time>2024-08-10T15:04:35.910Z</time>
      </trkpt>
      <trkpt lat="46.94877" lon="-1.16074">
        <ele>89</ele>
        <time>2024-08-10T15:04:37.779Z</time>
      </trkpt>
      <trkpt lat="46.94849" lon="-1.16041">
        <ele>88</ele>
        <time>2024-08-10T15:04:42.431Z</time>
      </trkpt>
      <trkpt lat="46.94814" lon="-1.15991">
        <ele>87</ele>
        <time>2024-08-10T15:04:49.150Z</time>
      </trkpt>
      <trkpt lat="46.9473" lon="-1.15888">
        <ele>86</ele>
        <time>2024-08-10T15:05:05.750Z</time>
      </trkpt>
      <trkpt lat="46.9467" lon="-1.15891">
        <ele>87</ele>
        <time>2024-08-10T15:05:17.449Z</time>
      </trkpt>
      <trkpt lat="46.94537" lon="-1.15878">
        <ele>91</ele>
        <time>2024-08-10T15:05:47.538Z</time>
      </trkpt>
      <trkpt lat="46.94426" lon="-1.15905">
        <ele>94</ele>
        <time>2024-08-10T15:06:11.992Z</time>
      </trkpt>
      <trkpt lat="46.94367" lon="-1.15907">
        <ele>93</ele>
        <time>2024-08-10T15:06:20.345Z</time>
      </trkpt>
      <trkpt lat="46.94322" lon="-1.15892">
        <ele>93</ele>
        <time>2024-08-10T15:06:27.953Z</time>
      </trkpt>
      <trkpt lat="46.94048" lon="-1.15762">
        <ele>91</ele>
        <time>2024-08-10T15:07:12.467Z</time>
      </trkpt>
      <trkpt lat="46.94028" lon="-1.15761">
        <ele>91</ele>
        <time>2024-08-10T15:07:15.766Z</time>
      </trkpt>
      <trkpt lat="46.93903" lon="-1.15807">
        <ele>89</ele>
        <time>2024-08-10T15:07:34.233Z</time>
      </trkpt>
      <trkpt lat="46.93885" lon="-1.15807">
        <ele>88</ele>
        <time>2024-08-10T15:07:36.143Z</time>
      </trkpt>
      <trkpt lat="46.93753" lon="-1.15769">
        <ele>91</ele>
        <time>2024-08-10T15:08:03.997Z</time>
      </trkpt>
      <trkpt lat="46.93662" lon="-1.15726">
        <ele>92</ele>
        <time>2024-08-10T15:08:21.469Z</time>
      </trkpt>
      <trkpt lat="46.93639" lon="-1.15709">
        <ele>92</ele>
        <time>2024-08-10T15:08:25.716Z</time>
      </trkpt>
      <trkpt lat="46.93617" lon="-1.15669">
        <ele>92</ele>
        <time>2024-08-10T15:08:31.498Z</time>
      </trkpt>
      <trkpt lat="46.93554" lon="-1.1553">
        <ele>88</ele>
        <time>2024-08-10T15:08:45.441Z</time>
      </trkpt>
      <trkpt lat="46.93513" lon="-1.15461">
        <ele>88</ele>
        <time>2024-08-10T15:08:55.738Z</time>
      </trkpt>
      <trkpt lat="46.93465" lon="-1.15403">
        <ele>88</ele>
        <time>2024-08-10T15:09:05.997Z</time>
      </trkpt>
      <trkpt lat="46.93238" lon="-1.15191">
        <ele>89</ele>
        <time>2024-08-10T15:09:51.997Z</time>
      </trkpt>
      <trkpt lat="46.93267" lon="-1.15062">
        <ele>89</ele>
        <time>2024-08-10T15:10:07.286Z</time>
      </trkpt>
      <trkpt lat="46.93316" lon="-1.14992">
        <ele>90</ele>
        <time>2024-08-10T15:10:20.341Z</time>
      </trkpt>
      <trkpt lat="46.93359" lon="-1.14947">
        <ele>90</ele>
        <time>2024-08-10T15:10:29.054Z</time>
      </trkpt>
      <trkpt lat="46.93364" lon="-1.14936">
        <ele>90</ele>
        <time>2024-08-10T15:10:30.541Z</time>
      </trkpt>
      <trkpt lat="46.93366" lon="-1.14922">
        <ele>90</ele>
        <time>2024-08-10T15:10:32.151Z</time>
      </trkpt>
      <trkpt lat="46.93355" lon="-1.14855">
        <ele>90</ele>
        <time>2024-08-10T15:10:39.909Z</time>
      </trkpt>
      <trkpt lat="46.93323" lon="-1.14743">
        <ele>91</ele>
        <time>2024-08-10T15:10:55.307Z</time>
      </trkpt>
      <trkpt lat="46.93307" lon="-1.14699">
        <ele>91</ele>
        <time>2024-08-10T15:11:00.919Z</time>
      </trkpt>
      <trkpt lat="46.93261" lon="-1.14588">
        <ele>92</ele>
        <time>2024-08-10T15:11:17.256Z</time>
      </trkpt>
      <trkpt lat="46.93228" lon="-1.14519">
        <ele>91</ele>
        <time>2024-08-10T15:11:25.368Z</time>
      </trkpt>
      <trkpt lat="46.93172" lon="-1.14417">
        <ele>92</ele>
        <time>2024-08-10T15:11:41.821Z</time>
      </trkpt>
      <trkpt lat="46.93159" lon="-1.1439">
        <ele>91</ele>
        <time>2024-08-10T15:11:44.403Z</time>
      </trkpt>
      <trkpt lat="46.93156" lon="-1.14373">
        <ele>91</ele>
        <time>2024-08-10T15:11:46.379Z</time>
      </trkpt>
      <trkpt lat="46.93158" lon="-1.14351">
        <ele>90</ele>
        <time>2024-08-10T15:11:47.885Z</time>
      </trkpt>
      <trkpt lat="46.9334" lon="-1.13956">
        <ele>93</ele>
        <time>2024-08-10T15:12:46.600Z</time>
      </trkpt>
      <trkpt lat="46.93366" lon="-1.13901">
        <ele>91</ele>
        <time>2024-08-10T15:12:51.848Z</time>
      </trkpt>
      <trkpt lat="46.93391" lon="-1.13867">
        <ele>91</ele>
        <time>2024-08-10T15:12:57.473Z</time>
      </trkpt>
      <trkpt lat="46.93441" lon="-1.13828">
        <ele>92</ele>
        <time>2024-08-10T15:13:08.628Z</time>
      </trkpt>
      <trkpt lat="46.93474" lon="-1.13804">
        <ele>93</ele>
        <time>2024-08-10T15:13:16.679Z</time>
      </trkpt>
      <trkpt lat="46.93488" lon="-1.13791">
        <ele>93</ele>
        <time>2024-08-10T15:13:19.412Z</time>
      </trkpt>
      <trkpt lat="46.93494" lon="-1.13779">
        <ele>93</ele>
        <time>2024-08-10T15:13:21.086Z</time>
      </trkpt>
      <trkpt lat="46.93495" lon="-1.13735">
        <ele>94</ele>
        <time>2024-08-10T15:13:28.133Z</time>
      </trkpt>
      <trkpt lat="46.93481" lon="-1.13666">
        <ele>93</ele>
        <time>2024-08-10T15:13:34.894Z</time>
      </trkpt>
      <trkpt lat="46.93482" lon="-1.13652">
        <ele>93</ele>
        <time>2024-08-10T15:13:36.478Z</time>
      </trkpt>
      <trkpt lat="46.93485" lon="-1.13638">
        <ele>93</ele>
        <time>2024-08-10T15:13:38.130Z</time>
      </trkpt>
      <trkpt lat="46.93512" lon="-1.13595">
        <ele>93</ele>
        <time>2024-08-10T15:13:44.706Z</time>
      </trkpt>
      <trkpt lat="46.93533" lon="-1.13484">
        <ele>92</ele>
        <time>2024-08-10T15:13:56.252Z</time>
      </trkpt>
      <trkpt lat="46.93541" lon="-1.13465">
        <ele>92</ele>
        <time>2024-08-10T15:13:58.765Z</time>
      </trkpt>
      <trkpt lat="46.93575" lon="-1.13415">
        <ele>93</ele>
        <time>2024-08-10T15:14:08.575Z</time>
      </trkpt>
      <trkpt lat="46.93581" lon="-1.13396">
        <ele>93</ele>
        <time>2024-08-10T15:14:10.931Z</time>
      </trkpt>
      <trkpt lat="46.93596" lon="-1.13289">
        <ele>93</ele>
        <time>2024-08-10T15:14:23.227Z</time>
      </trkpt>
      <trkpt lat="46.93588" lon="-1.13233">
        <ele>93</ele>
        <time>2024-08-10T15:14:29.668Z</time>
      </trkpt>
      <trkpt lat="46.93552" lon="-1.1311">
        <ele>94</ele>
        <time>2024-08-10T15:14:46.447Z</time>
      </trkpt>
      <trkpt lat="46.93543" lon="-1.13065">
        <ele>95</ele>
        <time>2024-08-10T15:14:53.777Z</time>
      </trkpt>
      <trkpt lat="46.9354" lon="-1.13028">
        <ele>95</ele>
        <time>2024-08-10T15:14:57.971Z</time>
      </trkpt>
      <trkpt lat="46.93543" lon="-1.12978">
        <ele>95</ele>
        <time>2024-08-10T15:15:03.622Z</time>
      </trkpt>
      <trkpt lat="46.93564" lon="-1.1289">
        <ele>98</ele>
        <time>2024-08-10T15:15:21.275Z</time>
      </trkpt>
      <trkpt lat="46.93565" lon="-1.12852">
        <ele>99</ele>
        <time>2024-08-10T15:15:27.752Z</time>
      </trkpt>
      <trkpt lat="46.9354" lon="-1.1262">
        <ele>102</ele>
        <time>2024-08-10T15:15:59.691Z</time>
      </trkpt>
      <trkpt lat="46.93529" lon="-1.12578">
        <ele>101</ele>
        <time>2024-08-10T15:16:03.524Z</time>
      </trkpt>
      <trkpt lat="46.93486" lon="-1.12466">
        <ele>99</ele>
        <time>2024-08-10T15:16:15.352Z</time>
      </trkpt>
      <trkpt lat="46.9343" lon="-1.12337">
        <ele>97</ele>
        <time>2024-08-10T15:16:29.853Z</time>
      </trkpt>
      <trkpt lat="46.93388" lon="-1.12277">
        <ele>97</ele>
        <time>2024-08-10T15:16:39.525Z</time>
      </trkpt>
      <trkpt lat="46.93364" lon="-1.12226">
        <ele>97</ele>
        <time>2024-08-10T15:16:46.498Z</time>
      </trkpt>
      <trkpt lat="46.9335" lon="-1.12178">
        <ele>97</ele>
        <time>2024-08-10T15:16:52.374Z</time>
      </trkpt>
      <trkpt lat="46.93328" lon="-1.12068">
        <ele>99</ele>
        <time>2024-08-10T15:17:09.173Z</time>
      </trkpt>
      <trkpt lat="46.93283" lon="-1.1178">
        <ele>102</ele>
        <time>2024-08-10T15:17:47.753Z</time>
      </trkpt>
      <trkpt lat="46.9327" lon="-1.11723">
        <ele>102</ele>
        <time>2024-08-10T15:17:54.518Z</time>
      </trkpt>
      <trkpt lat="46.9322" lon="-1.11552">
        <ele>101</ele>
        <time>2024-08-10T15:18:13.985Z</time>
      </trkpt>
      <trkpt lat="46.93192" lon="-1.11452">
        <ele>100</ele>
        <time>2024-08-10T15:18:24.742Z</time>
      </trkpt>
      <trkpt lat="46.93172" lon="-1.114">
        <ele>98</ele>
        <time>2024-08-10T15:18:29.255Z</time>
      </trkpt>
      <trkpt lat="46.93151" lon="-1.11375">
        <ele>98</ele>
        <time>2024-08-10T15:18:33.717Z</time>
      </trkpt>
      <trkpt lat="46.93098" lon="-1.11329">
        <ele>100</ele>
        <time>2024-08-10T15:18:48.024Z</time>
      </trkpt>
      <trkpt lat="46.93069" lon="-1.11313">
        <ele>100</ele>
        <time>2024-08-10T15:18:53.133Z</time>
      </trkpt>
      <trkpt lat="46.93057" lon="-1.11311">
        <ele>99</ele>
        <time>2024-08-10T15:18:54.328Z</time>
      </trkpt>
      <trkpt lat="46.93009" lon="-1.11326">
        <ele>98</ele>
        <time>2024-08-10T15:19:01.078Z</time>
      </trkpt>
      <trkpt lat="46.92896" lon="-1.11385">
        <ele>98</ele>
        <time>2024-08-10T15:19:20.855Z</time>
      </trkpt>
      <trkpt lat="46.92862" lon="-1.1139">
        <ele>96</ele>
        <time>2024-08-10T15:19:24.411Z</time>
      </trkpt>
      <trkpt lat="46.92813" lon="-1.11385">
        <ele>96</ele>
        <time>2024-08-10T15:19:32.509Z</time>
      </trkpt>
      <trkpt lat="46.92774" lon="-1.11373">
        <ele>96</ele>
        <time>2024-08-10T15:19:39.079Z</time>
      </trkpt>
      <trkpt lat="46.92743" lon="-1.11352">
        <ele>95</ele>
        <time>2024-08-10T15:19:43.451Z</time>
      </trkpt>
      <trkpt lat="46.92724" lon="-1.1133">
        <ele>96</ele>
        <time>2024-08-10T15:19:49.699Z</time>
      </trkpt>
      <trkpt lat="46.92752" lon="-1.1111">
        <ele>100</ele>
        <time>2024-08-10T15:20:22.731Z</time>
      </trkpt>
      <trkpt lat="46.92619" lon="-1.11068">
        <ele>97</ele>
        <time>2024-08-10T15:20:41.185Z</time>
      </trkpt>
      <trkpt lat="46.92359" lon="-1.1086">
        <ele>98</ele>
        <time>2024-08-10T15:21:31.640Z</time>
      </trkpt>
      <trkpt lat="46.92359" lon="-1.10859">
        <ele>98</ele>
        <time>2024-08-10T15:21:31.752Z</time>
      </trkpt>
      <trkpt lat="46.92261" lon="-1.10778">
        <ele>98</ele>
        <time>2024-08-10T15:21:50.305Z</time>
      </trkpt>
      <trkpt lat="46.92205" lon="-1.10691">
        <ele>100</ele>
        <time>2024-08-10T15:22:07.625Z</time>
      </trkpt>
      <trkpt lat="46.92187" lon="-1.10663">
        <ele>101</ele>
        <time>2024-08-10T15:22:14.142Z</time>
      </trkpt>
      <trkpt lat="46.9206" lon="-1.10517">
        <ele>104</ele>
        <time>2024-08-10T15:22:46.256Z</time>
      </trkpt>
      <trkpt lat="46.9204" lon="-1.10482">
        <ele>103</ele>
        <time>2024-08-10T15:22:50.159Z</time>
      </trkpt>
      <trkpt lat="46.91987" lon="-1.10358">
        <ele>107</ele>
        <time>2024-08-10T15:23:15.544Z</time>
      </trkpt>
      <trkpt lat="46.91966" lon="-1.10289">
        <ele>107</ele>
        <time>2024-08-10T15:23:24.050Z</time>
      </trkpt>
      <trkpt lat="46.9193" lon="-1.10191">
        <ele>106</ele>
        <time>2024-08-10T15:23:35.165Z</time>
      </trkpt>
      <trkpt lat="46.9191" lon="-1.10154">
        <ele>107</ele>
        <time>2024-08-10T15:23:42.526Z</time>
      </trkpt>
      <trkpt lat="46.91896" lon="-1.10141">
        <ele>108</ele>
        <time>2024-08-10T15:23:47.979Z</time>
      </trkpt>
      <trkpt lat="46.91874" lon="-1.10129">
        <ele>109</ele>
        <time>2024-08-10T15:23:54.133Z</time>
      </trkpt>
      <trkpt lat="46.91835" lon="-1.10119">
        <ele>109</ele>
        <time>2024-08-10T15:24:00.660Z</time>
      </trkpt>
      <trkpt lat="46.91741" lon="-1.10082">
        <ele>109</ele>
        <time>2024-08-10T15:24:16.707Z</time>
      </trkpt>
      <trkpt lat="46.91551" lon="-1.10072">
        <ele>105</ele>
        <time>2024-08-10T15:24:42.710Z</time>
      </trkpt>
      <trkpt lat="46.91502" lon="-1.10061">
        <ele>104</ele>
        <time>2024-08-10T15:24:49.539Z</time>
      </trkpt>
      <trkpt lat="46.91434" lon="-1.10032">
        <ele>104</ele>
        <time>2024-08-10T15:25:01.216Z</time>
      </trkpt>
      <trkpt lat="46.91408" lon="-1.09815">
        <ele>98</ele>
        <time>2024-08-10T15:25:19.000Z</time>
      </trkpt>
      <trkpt lat="46.914" lon="-1.09716">
        <ele>95</ele>
        <time>2024-08-10T15:25:26.809Z</time>
      </trkpt>
      <trkpt lat="46.91403" lon="-1.09638">
        <ele>93</ele>
        <time>2024-08-10T15:25:33.227Z</time>
      </trkpt>
      <trkpt lat="46.91399" lon="-1.09534">
        <ele>92</ele>
        <time>2024-08-10T15:25:43.551Z</time>
      </trkpt>
      <trkpt lat="46.91411" lon="-1.09434">
        <ele>93</ele>
        <time>2024-08-10T15:25:56.752Z</time>
      </trkpt>
      <trkpt lat="46.91428" lon="-1.09346">
        <ele>95</ele>
        <time>2024-08-10T15:26:11.184Z</time>
      </trkpt>
      <trkpt lat="46.91427" lon="-1.0932">
        <ele>95</ele>
        <time>2024-08-10T15:26:14.116Z</time>
      </trkpt>
      <trkpt lat="46.91422" lon="-1.09282">
        <ele>96</ele>
        <time>2024-08-10T15:26:20.657Z</time>
      </trkpt>
      <trkpt lat="46.91411" lon="-1.09239">
        <ele>98</ele>
        <time>2024-08-10T15:26:31.458Z</time>
      </trkpt>
      <trkpt lat="46.91321" lon="-1.08965">
        <ele>101</ele>
        <time>2024-08-10T15:27:10.997Z</time>
      </trkpt>
      <trkpt lat="46.91304" lon="-1.08925">
        <ele>100</ele>
        <time>2024-08-10T15:27:15.059Z</time>
      </trkpt>
      <trkpt lat="46.91295" lon="-1.08924">
        <ele>100</ele>
        <time>2024-08-10T15:27:16.547Z</time>
      </trkpt>
      <trkpt lat="46.91292" lon="-1.08918">
        <ele>100</ele>
        <time>2024-08-10T15:27:17.385Z</time>
      </trkpt>
      <trkpt lat="46.91294" lon="-1.08906">
        <ele>100</ele>
        <time>2024-08-10T15:27:18.776Z</time>
      </trkpt>
      <trkpt lat="46.91302" lon="-1.08902">
        <ele>100</ele>
        <time>2024-08-10T15:27:20.170Z</time>
      </trkpt>
      <trkpt lat="46.91308" lon="-1.08909">
        <ele>100</ele>
        <time>2024-08-10T15:27:21.434Z</time>
      </trkpt>
      <trkpt lat="46.91325" lon="-1.08889">
        <ele>100</ele>
        <time>2024-08-10T15:27:25.030Z</time>
      </trkpt>
      <trkpt lat="46.91398" lon="-1.08758">
        <ele>101</ele>
        <time>2024-08-10T15:27:45.751Z</time>
      </trkpt>
      <trkpt lat="46.91418" lon="-1.08729">
        <ele>101</ele>
        <time>2024-08-10T15:27:50.392Z</time>
      </trkpt>
      <trkpt lat="46.91417" lon="-1.08671">
        <ele>102</ele>
        <time>2024-08-10T15:27:58.868Z</time>
      </trkpt>
      <trkpt lat="46.91421" lon="-1.08615">
        <ele>100</ele>
        <time>2024-08-10T15:28:03.045Z</time>
      </trkpt>
      <trkpt lat="46.91421" lon="-1.08529">
        <ele>99</ele>
        <time>2024-08-10T15:28:11.354Z</time>
      </trkpt>
      <trkpt lat="46.91432" lon="-1.08368">
        <ele>99</ele>
        <time>2024-08-10T15:28:29.576Z</time>
      </trkpt>
      <trkpt lat="46.91428" lon="-1.0835">
        <ele>99</ele>
        <time>2024-08-10T15:28:31.707Z</time>
      </trkpt>
      <trkpt lat="46.91414" lon="-1.0832">
        <ele>99</ele>
        <time>2024-08-10T15:28:35.799Z</time>
      </trkpt>
      <trkpt lat="46.91401" lon="-1.08259">
        <ele>100</ele>
        <time>2024-08-10T15:28:44.897Z</time>
      </trkpt>
      <trkpt lat="46.91363" lon="-1.08153">
        <ele>102</ele>
        <time>2024-08-10T15:29:02.237Z</time>
      </trkpt>
      <trkpt lat="46.91358" lon="-1.0813">
        <ele>103</ele>
        <time>2024-08-10T15:29:07.684Z</time>
      </trkpt>
      <trkpt lat="46.91352" lon="-1.08003">
        <ele>105</ele>
        <time>2024-08-10T15:29:25.828Z</time>
      </trkpt>
      <trkpt lat="46.91357" lon="-1.07856">
        <ele>107</ele>
        <time>2024-08-10T15:29:46.108Z</time>
      </trkpt>
      <trkpt lat="46.91361" lon="-1.07822">
        <ele>107</ele>
        <time>2024-08-10T15:29:49.993Z</time>
      </trkpt>
      <trkpt lat="46.91386" lon="-1.07732">
        <ele>108</ele>
        <time>2024-08-10T15:30:02.711Z</time>
      </trkpt>
      <trkpt lat="46.91396" lon="-1.07641">
        <ele>109</ele>
        <time>2024-08-10T15:30:14.879Z</time>
      </trkpt>
      <trkpt lat="46.91385" lon="-1.07629">
        <ele>109</ele>
        <time>2024-08-10T15:30:17.141Z</time>
      </trkpt>
      <trkpt lat="46.91375" lon="-1.07609">
        <ele>109</ele>
        <time>2024-08-10T15:30:19.932Z</time>
      </trkpt>
      <trkpt lat="46.91343" lon="-1.07512">
        <ele>110</ele>
        <time>2024-08-10T15:30:33.817Z</time>
      </trkpt>
      <trkpt lat="46.91276" lon="-1.074">
        <ele>109</ele>
        <time>2024-08-10T15:30:49.131Z</time>
      </trkpt>
      <trkpt lat="46.91235" lon="-1.07321">
        <ele>109</ele>
        <time>2024-08-10T15:31:00.305Z</time>
      </trkpt>
      <trkpt lat="46.91178" lon="-1.07288">
        <ele>107</ele>
        <time>2024-08-10T15:31:07.950Z</time>
      </trkpt>
      <trkpt lat="46.91156" lon="-1.0728">
        <ele>107</ele>
        <time>2024-08-10T15:31:11.687Z</time>
      </trkpt>
      <trkpt lat="46.91102" lon="-1.0727">
        <ele>106</ele>
        <time>2024-08-10T15:31:19.299Z</time>
      </trkpt>
      <trkpt lat="46.91064" lon="-1.07269">
        <ele>107</ele>
        <time>2024-08-10T15:31:27.526Z</time>
      </trkpt>
      <trkpt lat="46.9097" lon="-1.07249">
        <ele>105</ele>
        <time>2024-08-10T15:31:40.516Z</time>
      </trkpt>
      <trkpt lat="46.90926" lon="-1.07235">
        <ele>104</ele>
        <time>2024-08-10T15:31:46.615Z</time>
      </trkpt>
      <trkpt lat="46.90851" lon="-1.07196">
        <ele>104</ele>
        <time>2024-08-10T15:31:59.736Z</time>
      </trkpt>
      <trkpt lat="46.90775" lon="-1.07131">
        <ele>102</ele>
        <time>2024-08-10T15:32:11.610Z</time>
      </trkpt>
      <trkpt lat="46.90731" lon="-1.07069">
        <ele>102</ele>
        <time>2024-08-10T15:32:21.678Z</time>
      </trkpt>
      <trkpt lat="46.90627" lon="-1.06871">
        <ele>105</ele>
        <time>2024-08-10T15:32:55.254Z</time>
      </trkpt>
      <trkpt lat="46.90565" lon="-1.06774">
        <ele>106</ele>
        <time>2024-08-10T15:33:11.932Z</time>
      </trkpt>
      <trkpt lat="46.9056" lon="-1.06779">
        <ele>106</ele>
        <time>2024-08-10T15:33:12.930Z</time>
      </trkpt>
      <trkpt lat="46.90458" lon="-1.06882">
        <ele>102</ele>
        <time>2024-08-10T15:33:28.427Z</time>
      </trkpt>
      <trkpt lat="46.90408" lon="-1.06915">
        <ele>102</ele>
        <time>2024-08-10T15:33:37.469Z</time>
      </trkpt>
      <trkpt lat="46.90373" lon="-1.06951">
        <ele>102</ele>
        <time>2024-08-10T15:33:44.522Z</time>
      </trkpt>
      <trkpt lat="46.90329" lon="-1.07023">
        <ele>101</ele>
        <time>2024-08-10T15:33:54.008Z</time>
      </trkpt>
      <trkpt lat="46.90299" lon="-1.07082">
        <ele>102</ele>
        <time>2024-08-10T15:34:04.145Z</time>
      </trkpt>
      <trkpt lat="46.90274" lon="-1.07132">
        <ele>102</ele>
        <time>2024-08-10T15:34:11.124Z</time>
      </trkpt>
      <trkpt lat="46.90238" lon="-1.07221">
        <ele>103</ele>
        <time>2024-08-10T15:34:24.536Z</time>
      </trkpt>
      <trkpt lat="46.90124" lon="-1.07027">
        <ele>101</ele>
        <time>2024-08-10T15:34:50.491Z</time>
      </trkpt>
      <trkpt lat="46.90036" lon="-1.06926">
        <ele>97</ele>
        <time>2024-08-10T15:35:04.112Z</time>
      </trkpt>
      <trkpt lat="46.89955" lon="-1.0682">
        <ele>95</ele>
        <time>2024-08-10T15:35:19.303Z</time>
      </trkpt>
      <trkpt lat="46.89843" lon="-1.06648">
        <ele>93</ele>
        <time>2024-08-10T15:35:43.219Z</time>
      </trkpt>
      <trkpt lat="46.89721" lon="-1.06442">
        <ele>90</ele>
        <time>2024-08-10T15:36:09.774Z</time>
      </trkpt>
      <trkpt lat="46.89669" lon="-1.06344">
        <ele>93</ele>
        <time>2024-08-10T15:36:30.149Z</time>
      </trkpt>
      <trkpt lat="46.89267" lon="-1.05194">
        <ele>102</ele>
        <time>2024-08-10T15:39:11.008Z</time>
      </trkpt>
      <trkpt lat="46.89206" lon="-1.05075">
        <ele>104</ele>
        <time>2024-08-10T15:39:31.465Z</time>
      </trkpt>
      <trkpt lat="46.89178" lon="-1.04999">
        <ele>104</ele>
        <time>2024-08-10T15:39:41.192Z</time>
      </trkpt>
      <trkpt lat="46.89107" lon="-1.0489">
        <ele>103</ele>
        <time>2024-08-10T15:39:56.704Z</time>
      </trkpt>
      <trkpt lat="46.89017" lon="-1.04766">
        <ele>103</ele>
        <time>2024-08-10T15:40:17.084Z</time>
      </trkpt>
      <trkpt lat="46.88951" lon="-1.04657">
        <ele>103</ele>
        <time>2024-08-10T15:40:33.491Z</time>
      </trkpt>
      <trkpt lat="46.8893" lon="-1.04603">
        <ele>104</ele>
        <time>2024-08-10T15:40:42.404Z</time>
      </trkpt>
      <trkpt lat="46.88757" lon="-1.04045">
        <ele>107</ele>
        <time>2024-08-10T15:41:56.425Z</time>
      </trkpt>
      <trkpt lat="46.88743" lon="-1.04017">
        <ele>107</ele>
        <time>2024-08-10T15:42:00.334Z</time>
      </trkpt>
      <trkpt lat="46.88731" lon="-1.0402">
        <ele>106</ele>
        <time>2024-08-10T15:42:01.538Z</time>
      </trkpt>
      <trkpt lat="46.88722" lon="-1.04014">
        <ele>105</ele>
        <time>2024-08-10T15:42:02.516Z</time>
      </trkpt>
      <trkpt lat="46.88716" lon="-1.03999">
        <ele>105</ele>
        <time>2024-08-10T15:42:04.475Z</time>
      </trkpt>
      <trkpt lat="46.88718" lon="-1.03979">
        <ele>105</ele>
        <time>2024-08-10T15:42:06.752Z</time>
      </trkpt>
      <trkpt lat="46.88705" lon="-1.0396">
        <ele>105</ele>
        <time>2024-08-10T15:42:09.781Z</time>
      </trkpt>
      <trkpt lat="46.88669" lon="-1.03924">
        <ele>105</ele>
        <time>2024-08-10T15:42:16.970Z</time>
      </trkpt>
      <trkpt lat="46.88561" lon="-1.03823">
        <ele>107</ele>
        <time>2024-08-10T15:42:41.670Z</time>
      </trkpt>
      <trkpt lat="46.8827" lon="-1.03512">
        <ele>108</ele>
        <time>2024-08-10T15:43:42.682Z</time>
      </trkpt>
      <trkpt lat="46.88185" lon="-1.03442">
        <ele>108</ele>
        <time>2024-08-10T15:43:58.763Z</time>
      </trkpt>
      <trkpt lat="46.88083" lon="-1.03373">
        <ele>107</ele>
        <time>2024-08-10T15:44:15.827Z</time>
      </trkpt>
      <trkpt lat="46.88052" lon="-1.03343">
        <ele>108</ele>
        <time>2024-08-10T15:44:23.926Z</time>
      </trkpt>
      <trkpt lat="46.87873" lon="-1.03074">
        <ele>113</ele>
        <time>2024-08-10T15:45:15.460Z</time>
      </trkpt>
      <trkpt lat="46.87776" lon="-1.02917">
        <ele>116</ele>
        <time>2024-08-10T15:45:44.907Z</time>
      </trkpt>
      <trkpt lat="46.8774" lon="-1.02867">
        <ele>115</ele>
        <time>2024-08-10T15:45:51.747Z</time>
      </trkpt>
      <trkpt lat="46.87696" lon="-1.0282">
        <ele>114</ele>
        <time>2024-08-10T15:45:59.367Z</time>
      </trkpt>
      <trkpt lat="46.87607" lon="-1.0267">
        <ele>107</ele>
        <time>2024-08-10T15:46:14.154Z</time>
      </trkpt>
      <trkpt lat="46.87598" lon="-1.02668">
        <ele>106</ele>
        <time>2024-08-10T15:46:15.055Z</time>
      </trkpt>
      <trkpt lat="46.87598" lon="-1.02659">
        <ele>106</ele>
        <time>2024-08-10T15:46:16.069Z</time>
      </trkpt>
      <trkpt lat="46.87552" lon="-1.0257">
        <ele>105</ele>
        <time>2024-08-10T15:46:27.227Z</time>
      </trkpt>
      <trkpt lat="46.87512" lon="-1.02468">
        <ele>106</ele>
        <time>2024-08-10T15:46:42.216Z</time>
      </trkpt>
      <trkpt lat="46.875" lon="-1.02464">
        <ele>106</ele>
        <time>2024-08-10T15:46:44.245Z</time>
      </trkpt>
      <trkpt lat="46.87492" lon="-1.02453">
        <ele>105</ele>
        <time>2024-08-10T15:46:45.332Z</time>
      </trkpt>
      <trkpt lat="46.87489" lon="-1.02438">
        <ele>105</ele>
        <time>2024-08-10T15:46:47.093Z</time>
      </trkpt>
      <trkpt lat="46.87492" lon="-1.02423">
        <ele>105</ele>
        <time>2024-08-10T15:46:48.854Z</time>
      </trkpt>
      <trkpt lat="46.875" lon="-1.02411">
        <ele>106</ele>
        <time>2024-08-10T15:46:54.280Z</time>
      </trkpt>
      <trkpt lat="46.87478" lon="-1.02347">
        <ele>106</ele>
        <time>2024-08-10T15:47:02.353Z</time>
      </trkpt>
      <trkpt lat="46.87474" lon="-1.02351">
        <ele>106</ele>
        <time>2024-08-10T15:47:03.152Z</time>
      </trkpt>
      <trkpt lat="46.87478" lon="-1.02347">
        <ele>106</ele>
        <time>2024-08-10T15:47:03.951Z</time>
      </trkpt>
      <trkpt lat="46.87448" lon="-1.02296">
        <ele>107</ele>
        <time>2024-08-10T15:47:13.416Z</time>
      </trkpt>
      <trkpt lat="46.87371" lon="-1.02213">
        <ele>108</ele>
        <time>2024-08-10T15:47:30.892Z</time>
      </trkpt>
      <trkpt lat="46.87329" lon="-1.0214">
        <ele>110</ele>
        <time>2024-08-10T15:47:45.727Z</time>
      </trkpt>
      <trkpt lat="46.87269" lon="-1.01971">
        <ele>111</ele>
        <time>2024-08-10T15:48:08.858Z</time>
      </trkpt>
      <trkpt lat="46.87233" lon="-1.01842">
        <ele>113</ele>
        <time>2024-08-10T15:48:28.302Z</time>
      </trkpt>
      <trkpt lat="46.87223" lon="-1.01803">
        <ele>114</ele>
        <time>2024-08-10T15:48:35.124Z</time>
      </trkpt>
      <trkpt lat="46.87098" lon="-1.01697">
        <ele>112</ele>
        <time>2024-08-10T15:48:56.128Z</time>
      </trkpt>
      <trkpt lat="46.87075" lon="-1.01693">
        <ele>112</ele>
        <time>2024-08-10T15:48:59.946Z</time>
      </trkpt>
      <trkpt lat="46.87073" lon="-1.01693">
        <ele>112</ele>
        <time>2024-08-10T15:49:00.276Z</time>
      </trkpt>
      <trkpt lat="46.87094" lon="-1.0156">
        <ele>109</ele>
        <time>2024-08-10T15:49:11.958Z</time>
      </trkpt>
      <trkpt lat="46.87074" lon="-1.0155">
        <ele>107</ele>
        <time>2024-08-10T15:49:14.048Z</time>
      </trkpt>
      <trkpt lat="46.87025" lon="-1.01551">
        <ele>103</ele>
        <time>2024-08-10T15:49:18.896Z</time>
      </trkpt>
      <trkpt lat="46.87009" lon="-1.01561">
        <ele>102</ele>
        <time>2024-08-10T15:49:20.719Z</time>
      </trkpt>
      <trkpt lat="46.86971" lon="-1.0156">
        <ele>101</ele>
        <time>2024-08-10T15:49:25.699Z</time>
      </trkpt>
      <trkpt lat="46.8693" lon="-1.01521">
        <ele>104</ele>
        <time>2024-08-10T15:49:42.005Z</time>
      </trkpt>
      <trkpt lat="46.8692" lon="-1.01505">
        <ele>105</ele>
        <time>2024-08-10T15:49:47.370Z</time>
      </trkpt>
      <trkpt lat="46.86902" lon="-1.01493">
        <ele>106</ele>
        <time>2024-08-10T15:49:53.099Z</time>
      </trkpt>
      <trkpt lat="46.86839" lon="-1.01468">
        <ele>110</ele>
        <time>2024-08-10T15:50:14.845Z</time>
      </trkpt>
      <trkpt lat="46.86796" lon="-1.01442">
        <ele>112</ele>
        <time>2024-08-10T15:50:27.101Z</time>
      </trkpt>
      <trkpt lat="46.86716" lon="-1.01373">
        <ele>112</ele>
        <time>2024-08-10T15:50:42.412Z</time>
      </trkpt>
      <trkpt lat="46.86715" lon="-1.01374">
        <ele>112</ele>
        <time>2024-08-10T15:50:42.611Z</time>
      </trkpt>
      <trkpt lat="46.86716" lon="-1.01377">
        <ele>112</ele>
        <time>2024-08-10T15:50:42.988Z</time>
      </trkpt>
      <trkpt lat="46.86721" lon="-1.01381">
        <ele>113</ele>
        <time>2024-08-10T15:50:47.014Z</time>
      </trkpt>
      <trkpt lat="46.86721" lon="-1.01389">
        <ele>113</ele>
        <time>2024-08-10T15:50:47.916Z</time>
      </trkpt>
      <trkpt lat="46.86719" lon="-1.01392">
        <ele>114</ele>
        <time>2024-08-10T15:50:49.940Z</time>
      </trkpt>
      <trkpt lat="46.86715" lon="-1.01392">
        <ele>113</ele>
        <time>2024-08-10T15:50:50.336Z</time>
      </trkpt>
      <trkpt lat="46.86711" lon="-1.01386">
        <ele>113</ele>
        <time>2024-08-10T15:50:51.280Z</time>
      </trkpt>
      <trkpt lat="46.86712" lon="-1.01379">
        <ele>112</ele>
        <time>2024-08-10T15:50:51.764Z</time>
      </trkpt>
      <trkpt lat="46.86711" lon="-1.01363">
        <ele>111</ele>
        <time>2024-08-10T15:50:52.850Z</time>
      </trkpt>
      <trkpt lat="46.86694" lon="-1.01251">
        <ele>109</ele>
        <time>2024-08-10T15:51:03.195Z</time>
      </trkpt>
      <trkpt lat="46.86664" lon="-1.0115">
        <ele>108</ele>
        <time>2024-08-10T15:51:14.194Z</time>
      </trkpt>
      <trkpt lat="46.86665" lon="-1.0115">
        <ele>108</ele>
        <time>2024-08-10T15:51:14.358Z</time>
      </trkpt>
      <trkpt lat="46.86664" lon="-1.01135">
        <ele>107</ele>
        <time>2024-08-10T15:51:15.378Z</time>
      </trkpt>
      <trkpt lat="46.86665" lon="-1.01121">
        <ele>107</ele>
        <time>2024-08-10T15:51:16.964Z</time>
      </trkpt>
      <trkpt lat="46.8666" lon="-1.01113">
        <ele>107</ele>
        <time>2024-08-10T15:51:18.186Z</time>
      </trkpt>
      <trkpt lat="46.86646" lon="-1.01098">
        <ele>107</ele>
        <time>2024-08-10T15:51:21.047Z</time>
      </trkpt>
      <trkpt lat="46.8662" lon="-1.01062">
        <ele>108</ele>
        <time>2024-08-10T15:51:28.940Z</time>
      </trkpt>
      <trkpt lat="46.86611" lon="-1.01056">
        <ele>108</ele>
        <time>2024-08-10T15:51:30.570Z</time>
      </trkpt>
      <trkpt lat="46.86602" lon="-1.01045">
        <ele>109</ele>
        <time>2024-08-10T15:51:35.977Z</time>
      </trkpt>
      <trkpt lat="46.86595" lon="-1.01029">
        <ele>109</ele>
        <time>2024-08-10T15:51:38.118Z</time>
      </trkpt>
      <trkpt lat="46.86584" lon="-1.01011">
        <ele>110</ele>
        <time>2024-08-10T15:51:43.566Z</time>
      </trkpt>
      <trkpt lat="46.86579" lon="-1.00961">
        <ele>110</ele>
        <time>2024-08-10T15:51:49.262Z</time>
      </trkpt>
      <trkpt lat="46.86588" lon="-1.00948">
        <ele>110</ele>
        <time>2024-08-10T15:51:51.347Z</time>
      </trkpt>
      <trkpt lat="46.86599" lon="-1.00939">
        <ele>110</ele>
        <time>2024-08-10T15:51:53.425Z</time>
      </trkpt>
      <trkpt lat="46.86679" lon="-1.00848">
        <ele>110</ele>
        <time>2024-08-10T15:52:10.133Z</time>
      </trkpt>
      <trkpt lat="46.86693" lon="-1.00824">
        <ele>110</ele>
        <time>2024-08-10T15:52:13.689Z</time>
      </trkpt>
      <trkpt lat="46.86731" lon="-1.00783">
        <ele>109</ele>
        <time>2024-08-10T15:52:20.140Z</time>
      </trkpt>
      <trkpt lat="46.86727" lon="-1.00684">
        <ele>112</ele>
        <time>2024-08-10T15:52:38.279Z</time>
      </trkpt>
      <trkpt lat="46.86724" lon="-1.00666">
        <ele>111</ele>
        <time>2024-08-10T15:52:39.532Z</time>
      </trkpt>
      <trkpt lat="46.86714" lon="-1.00671">
        <ele>112</ele>
        <time>2024-08-10T15:52:45.038Z</time>
      </trkpt>
      <trkpt lat="46.86708" lon="-1.0066">
        <ele>111</ele>
        <time>2024-08-10T15:52:45.990Z</time>
      </trkpt>
      <trkpt lat="46.86664" lon="-1.00646">
        <ele>112</ele>
        <time>2024-08-10T15:52:55.304Z</time>
      </trkpt>
      <trkpt lat="46.86595" lon="-1.00621">
        <ele>116</ele>
        <time>2024-08-10T15:53:17.471Z</time>
      </trkpt>
      <trkpt lat="46.86573" lon="-1.00609">
        <ele>117</ele>
        <time>2024-08-10T15:53:23.626Z</time>
      </trkpt>
      <trkpt lat="46.86541" lon="-1.00588">
        <ele>117</ele>
        <time>2024-08-10T15:53:29.408Z</time>
      </trkpt>
      <trkpt lat="46.86525" lon="-1.00564">
        <ele>118</ele>
        <time>2024-08-10T15:53:35.493Z</time>
      </trkpt>
      <trkpt lat="46.86523" lon="-1.00555">
        <ele>119</ele>
        <time>2024-08-10T15:53:40.064Z</time>
      </trkpt>
    </trkseg>
  </trk>
</gpx>